<?xml version="1.0" encoding="UTF-8" standalone="no" ?>
<gpx xmlns="http://www.topografix.com/GPX/1/1" xmlns:xsi="http://www.w3.org/2001/XMLSchema-instance" xsi:schemaLocation="http://www.topografix.com/GPX/1/1 http://www.topografix.com/GPX/1/1/gpx.xsd" version="1.1" creator="VisuGPX - https://www.visugpx.com">
  <metadata>
    <name>Pointe de Chaurionde</name>
    <desc><![CDATA[Pointe de Chaurionde en boucle, Bauges]]></desc>
  </metadata>
  <trk>
    <name><![CDATA[bauges - pointe de chaurionde]]></name>
    <desc><![CDATA[<h1>OruxMaps</h1><br /><hr align="center" width="480" style="height: 2px; width: 517px"/><h2>Nom: bauges - pointe de chaurionde</h2><br /><p>Temps de départ: 05/24/2015 09:50</p><p>Temps d'arrivée: 05/24/2015 16:04</p><p>Distance: 14,2km (06:14)</p><p>Temps déplacement: 04:46</p><p>Vitesse moyenne: 2,3km/h</p><p>Vitesse moyenne: 3km/h</p><p>Vitess Max.: 10,1km/h</p><p>Altitude minimale: 989m</p><p>Altitude maximale: 2174m</p><p>Vitesse d'élévation: 396,1m/h</p><p>Vitesse de descente: -583,4m/h</p><p>Gain Altitude: 1438m</p><p>Perte Altitude: -1428m</p><p>Temps d'élévation: 03:37</p><p>Temps de descente: 02:26</p><hr align="center" width="480" style="height: 2px; width: 517px"/>]]></desc>
    <trkseg>
      <trkpt lat="45.64562" lon="6.2366">
        <ele>991.77</ele>
        <time>2015-05-24T07:50:28Z</time>
      </trkpt>
      <trkpt lat="45.64565" lon="6.23685">
        <ele>1001.34</ele>
        <time>2015-05-24T07:50:52Z</time>
      </trkpt>
      <trkpt lat="45.64573" lon="6.23709">
        <ele>1002.25</ele>
        <time>2015-05-24T07:51:11Z</time>
      </trkpt>
      <trkpt lat="45.64588" lon="6.23723">
        <ele>1007.41</ele>
        <time>2015-05-24T07:51:31Z</time>
      </trkpt>
      <trkpt lat="45.64602" lon="6.2374">
        <ele>1005.25</ele>
        <time>2015-05-24T07:51:50Z</time>
      </trkpt>
      <trkpt lat="45.64616" lon="6.2376">
        <ele>1009.51</ele>
        <time>2015-05-24T07:52:09Z</time>
      </trkpt>
      <trkpt lat="45.64625" lon="6.23782">
        <ele>1011.69</ele>
        <time>2015-05-24T07:52:36Z</time>
      </trkpt>
      <trkpt lat="45.64639" lon="6.23799">
        <ele>999.42</ele>
        <time>2015-05-24T07:52:59Z</time>
      </trkpt>
      <trkpt lat="45.64654" lon="6.23814">
        <ele>1007.47</ele>
        <time>2015-05-24T07:53:16Z</time>
      </trkpt>
      <trkpt lat="45.64671" lon="6.23828">
        <ele>1016.34</ele>
        <time>2015-05-24T07:53:36Z</time>
      </trkpt>
      <trkpt lat="45.64687" lon="6.2384">
        <ele>1022.71</ele>
        <time>2015-05-24T07:53:51Z</time>
      </trkpt>
      <trkpt lat="45.64702" lon="6.23855">
        <ele>1025.71</ele>
        <time>2015-05-24T07:54:06Z</time>
      </trkpt>
      <trkpt lat="45.64715" lon="6.23875">
        <ele>1032.49</ele>
        <time>2015-05-24T07:54:24Z</time>
      </trkpt>
      <trkpt lat="45.64727" lon="6.23896">
        <ele>1032.76</ele>
        <time>2015-05-24T07:54:42Z</time>
      </trkpt>
      <trkpt lat="45.6474" lon="6.23915">
        <ele>1031.99</ele>
        <time>2015-05-24T07:54:58Z</time>
      </trkpt>
      <trkpt lat="45.64755" lon="6.23932">
        <ele>1030.9</ele>
        <time>2015-05-24T07:55:15Z</time>
      </trkpt>
      <trkpt lat="45.64763" lon="6.23957">
        <ele>1035.09</ele>
        <time>2015-05-24T07:55:31Z</time>
      </trkpt>
      <trkpt lat="45.64764" lon="6.23984">
        <ele>1039.15</ele>
        <time>2015-05-24T07:55:47Z</time>
      </trkpt>
      <trkpt lat="45.64781" lon="6.23995">
        <ele>1037.42</ele>
        <time>2015-05-24T07:56:07Z</time>
      </trkpt>
      <trkpt lat="45.64798" lon="6.24007">
        <ele>1038.64</ele>
        <time>2015-05-24T07:56:24Z</time>
      </trkpt>
      <trkpt lat="45.64814" lon="6.24021">
        <ele>1033.26</ele>
        <time>2015-05-24T07:56:41Z</time>
      </trkpt>
      <trkpt lat="45.64827" lon="6.24041">
        <ele>1031.62</ele>
        <time>2015-05-24T07:56:57Z</time>
      </trkpt>
      <trkpt lat="45.64834" lon="6.24065">
        <ele>1039.57</ele>
        <time>2015-05-24T07:57:13Z</time>
      </trkpt>
      <trkpt lat="45.64842" lon="6.24089">
        <ele>1037.97</ele>
        <time>2015-05-24T07:57:29Z</time>
      </trkpt>
      <trkpt lat="45.64856" lon="6.24107">
        <ele>1030.29</ele>
        <time>2015-05-24T07:57:47Z</time>
      </trkpt>
      <trkpt lat="45.64869" lon="6.24126">
        <ele>1023.05</ele>
        <time>2015-05-24T07:58:05Z</time>
      </trkpt>
      <trkpt lat="45.64885" lon="6.24142">
        <ele>1008.51</ele>
        <time>2015-05-24T07:58:21Z</time>
      </trkpt>
      <trkpt lat="45.64901" lon="6.24157">
        <ele>1003.72</ele>
        <time>2015-05-24T07:58:37Z</time>
      </trkpt>
      <trkpt lat="45.64917" lon="6.24169">
        <ele>996.05</ele>
        <time>2015-05-24T07:58:55Z</time>
      </trkpt>
      <trkpt lat="45.64935" lon="6.2418">
        <ele>993.14</ele>
        <time>2015-05-24T07:59:09Z</time>
      </trkpt>
      <trkpt lat="45.6495" lon="6.24194">
        <ele>989.91</ele>
        <time>2015-05-24T07:59:24Z</time>
      </trkpt>
      <trkpt lat="45.64965" lon="6.2421">
        <ele>994.51</ele>
        <time>2015-05-24T07:59:40Z</time>
      </trkpt>
      <trkpt lat="45.6498" lon="6.24225">
        <ele>1005.32</ele>
        <time>2015-05-24T07:59:57Z</time>
      </trkpt>
      <trkpt lat="45.64975" lon="6.24251">
        <ele>1024.24</ele>
        <time>2015-05-24T08:00:23Z</time>
      </trkpt>
      <trkpt lat="45.6499" lon="6.24267">
        <ele>1019.69</ele>
        <time>2015-05-24T08:00:49Z</time>
      </trkpt>
      <trkpt lat="45.65007" lon="6.24278">
        <ele>1020.3</ele>
        <time>2015-05-24T08:01:25Z</time>
      </trkpt>
      <trkpt lat="45.65022" lon="6.24292">
        <ele>1027.75</ele>
        <time>2015-05-24T08:01:43Z</time>
      </trkpt>
      <trkpt lat="45.65039" lon="6.24304">
        <ele>1027</ele>
        <time>2015-05-24T08:02:01Z</time>
      </trkpt>
      <trkpt lat="45.65049" lon="6.24327">
        <ele>1025.7</ele>
        <time>2015-05-24T08:02:16Z</time>
      </trkpt>
      <trkpt lat="45.65036" lon="6.24346">
        <ele>1026.61</ele>
        <time>2015-05-24T08:02:34Z</time>
      </trkpt>
      <trkpt lat="45.65018" lon="6.24342">
        <ele>1036.05</ele>
        <time>2015-05-24T08:02:52Z</time>
      </trkpt>
      <trkpt lat="45.64999" lon="6.24339">
        <ele>1040.96</ele>
        <time>2015-05-24T08:03:10Z</time>
      </trkpt>
      <trkpt lat="45.64982" lon="6.24333">
        <ele>1045.49</ele>
        <time>2015-05-24T08:03:28Z</time>
      </trkpt>
      <trkpt lat="45.64966" lon="6.24317">
        <ele>1051.54</ele>
        <time>2015-05-24T08:03:44Z</time>
      </trkpt>
      <trkpt lat="45.64951" lon="6.24302">
        <ele>1062.35</ele>
        <time>2015-05-24T08:04:00Z</time>
      </trkpt>
      <trkpt lat="45.64934" lon="6.24292">
        <ele>1057.71</ele>
        <time>2015-05-24T08:04:19Z</time>
      </trkpt>
      <trkpt lat="45.64917" lon="6.24286">
        <ele>1054.37</ele>
        <time>2015-05-24T08:04:35Z</time>
      </trkpt>
      <trkpt lat="45.64932" lon="6.24299">
        <ele>1074.07</ele>
        <time>2015-05-24T08:05:05Z</time>
      </trkpt>
      <trkpt lat="45.64947" lon="6.24316">
        <ele>1067.45</ele>
        <time>2015-05-24T08:05:22Z</time>
      </trkpt>
      <trkpt lat="45.64962" lon="6.24333">
        <ele>1061.73</ele>
        <time>2015-05-24T08:05:39Z</time>
      </trkpt>
      <trkpt lat="45.6497" lon="6.24357">
        <ele>1068.42</ele>
        <time>2015-05-24T08:06:13Z</time>
      </trkpt>
      <trkpt lat="45.64987" lon="6.24366">
        <ele>1081.94</ele>
        <time>2015-05-24T08:06:37Z</time>
      </trkpt>
      <trkpt lat="45.64971" lon="6.24379">
        <ele>1079.64</ele>
        <time>2015-05-24T08:07:39Z</time>
      </trkpt>
      <trkpt lat="45.64983" lon="6.24399">
        <ele>1092.75</ele>
        <time>2015-05-24T08:08:35Z</time>
      </trkpt>
      <trkpt lat="45.64996" lon="6.24417">
        <ele>1082.43</ele>
        <time>2015-05-24T08:09:22Z</time>
      </trkpt>
      <trkpt lat="45.65013" lon="6.24427">
        <ele>1096.29</ele>
        <time>2015-05-24T08:10:01Z</time>
      </trkpt>
      <trkpt lat="45.65024" lon="6.24449">
        <ele>1087.8</ele>
        <time>2015-05-24T08:11:07Z</time>
      </trkpt>
      <trkpt lat="45.6502" lon="6.24475">
        <ele>1107.81</ele>
        <time>2015-05-24T08:12:26Z</time>
      </trkpt>
      <trkpt lat="45.6503" lon="6.24496">
        <ele>1105.44</ele>
        <time>2015-05-24T08:12:49Z</time>
      </trkpt>
      <trkpt lat="45.65032" lon="6.24523">
        <ele>1102.87</ele>
        <time>2015-05-24T08:13:12Z</time>
      </trkpt>
      <trkpt lat="45.6503" lon="6.24549">
        <ele>1104</ele>
        <time>2015-05-24T08:13:37Z</time>
      </trkpt>
      <trkpt lat="45.65041" lon="6.24569">
        <ele>1119.54</ele>
        <time>2015-05-24T08:14:06Z</time>
      </trkpt>
      <trkpt lat="45.65052" lon="6.2459">
        <ele>1112.82</ele>
        <time>2015-05-24T08:14:24Z</time>
      </trkpt>
      <trkpt lat="45.65065" lon="6.24608">
        <ele>1112.49</ele>
        <time>2015-05-24T08:15:06Z</time>
      </trkpt>
      <trkpt lat="45.65071" lon="6.24633">
        <ele>1117.38</ele>
        <time>2015-05-24T08:15:39Z</time>
      </trkpt>
      <trkpt lat="45.65088" lon="6.24651">
        <ele>1120.25</ele>
        <time>2015-05-24T08:15:48Z</time>
      </trkpt>
      <trkpt lat="45.65091" lon="6.24677">
        <ele>1132.41</ele>
        <time>2015-05-24T08:16:21Z</time>
      </trkpt>
      <trkpt lat="45.65102" lon="6.24698">
        <ele>1140.65</ele>
        <time>2015-05-24T08:16:40Z</time>
      </trkpt>
      <trkpt lat="45.65109" lon="6.24723">
        <ele>1142.25</ele>
        <time>2015-05-24T08:17:43Z</time>
      </trkpt>
      <trkpt lat="45.65118" lon="6.24746">
        <ele>1147.63</ele>
        <time>2015-05-24T08:18:15Z</time>
      </trkpt>
      <trkpt lat="45.65123" lon="6.24772">
        <ele>1152.38</ele>
        <time>2015-05-24T08:18:46Z</time>
      </trkpt>
      <trkpt lat="45.65124" lon="6.24798">
        <ele>1157.84</ele>
        <time>2015-05-24T08:18:57Z</time>
      </trkpt>
      <trkpt lat="45.65137" lon="6.24818">
        <ele>1165.81</ele>
        <time>2015-05-24T08:19:14Z</time>
      </trkpt>
      <trkpt lat="45.65147" lon="6.24841">
        <ele>1173.56</ele>
        <time>2015-05-24T08:19:41Z</time>
      </trkpt>
      <trkpt lat="45.65151" lon="6.24866">
        <ele>1173.62</ele>
        <time>2015-05-24T08:20:30Z</time>
      </trkpt>
      <trkpt lat="45.65159" lon="6.24889">
        <ele>1177.36</ele>
        <time>2015-05-24T08:21:12Z</time>
      </trkpt>
      <trkpt lat="45.65171" lon="6.24909">
        <ele>1178.34</ele>
        <time>2015-05-24T08:21:38Z</time>
      </trkpt>
      <trkpt lat="45.65181" lon="6.2493">
        <ele>1184.94</ele>
        <time>2015-05-24T08:22:29Z</time>
      </trkpt>
      <trkpt lat="45.6518" lon="6.24956">
        <ele>1186.13</ele>
        <time>2015-05-24T08:22:57Z</time>
      </trkpt>
      <trkpt lat="45.65187" lon="6.24982">
        <ele>1199.94</ele>
        <time>2015-05-24T08:23:38Z</time>
      </trkpt>
      <trkpt lat="45.65199" lon="6.25002">
        <ele>1194.61</ele>
        <time>2015-05-24T08:24:12Z</time>
      </trkpt>
      <trkpt lat="45.65208" lon="6.25026">
        <ele>1197.86</ele>
        <time>2015-05-24T08:24:39Z</time>
      </trkpt>
      <trkpt lat="45.65223" lon="6.25043">
        <ele>1201.8</ele>
        <time>2015-05-24T08:24:58Z</time>
      </trkpt>
      <trkpt lat="45.65234" lon="6.25063">
        <ele>1207.46</ele>
        <time>2015-05-24T08:25:27Z</time>
      </trkpt>
      <trkpt lat="45.65251" lon="6.25075">
        <ele>1202.67</ele>
        <time>2015-05-24T08:25:51Z</time>
      </trkpt>
      <trkpt lat="45.65265" lon="6.25094">
        <ele>1206.34</ele>
        <time>2015-05-24T08:26:05Z</time>
      </trkpt>
      <trkpt lat="45.6528" lon="6.25111">
        <ele>1213.47</ele>
        <time>2015-05-24T08:26:41Z</time>
      </trkpt>
      <trkpt lat="45.65296" lon="6.25127">
        <ele>1201.87</ele>
        <time>2015-05-24T08:27:23Z</time>
      </trkpt>
      <trkpt lat="45.65315" lon="6.25128">
        <ele>1189.04</ele>
        <time>2015-05-24T08:27:41Z</time>
      </trkpt>
      <trkpt lat="45.65332" lon="6.25141">
        <ele>1181.8</ele>
        <time>2015-05-24T08:27:58Z</time>
      </trkpt>
      <trkpt lat="45.65347" lon="6.25158">
        <ele>1198.5</ele>
        <time>2015-05-24T08:28:36Z</time>
      </trkpt>
      <trkpt lat="45.65363" lon="6.25171">
        <ele>1203.17</ele>
        <time>2015-05-24T08:29:33Z</time>
      </trkpt>
      <trkpt lat="45.65381" lon="6.25176">
        <ele>1200.48</ele>
        <time>2015-05-24T08:31:32Z</time>
      </trkpt>
      <trkpt lat="45.65398" lon="6.25186">
        <ele>1203.37</ele>
        <time>2015-05-24T08:31:51Z</time>
      </trkpt>
      <trkpt lat="45.65403" lon="6.25211">
        <ele>1232.89</ele>
        <time>2015-05-24T08:33:52Z</time>
      </trkpt>
      <trkpt lat="45.65417" lon="6.25229">
        <ele>1232.35</ele>
        <time>2015-05-24T08:34:11Z</time>
      </trkpt>
      <trkpt lat="45.65434" lon="6.25239">
        <ele>1238.49</ele>
        <time>2015-05-24T08:34:26Z</time>
      </trkpt>
      <trkpt lat="45.6545" lon="6.25257">
        <ele>1232.38</ele>
        <time>2015-05-24T08:35:01Z</time>
      </trkpt>
      <trkpt lat="45.65468" lon="6.25265">
        <ele>1233.7</ele>
        <time>2015-05-24T08:35:10Z</time>
      </trkpt>
      <trkpt lat="45.65486" lon="6.25277">
        <ele>1237.88</ele>
        <time>2015-05-24T08:35:36Z</time>
      </trkpt>
      <trkpt lat="45.65503" lon="6.25287">
        <ele>1233.88</ele>
        <time>2015-05-24T08:35:47Z</time>
      </trkpt>
      <trkpt lat="45.65517" lon="6.25305">
        <ele>1235.1</ele>
        <time>2015-05-24T08:36:00Z</time>
      </trkpt>
      <trkpt lat="45.65528" lon="6.25325">
        <ele>1238.33</ele>
        <time>2015-05-24T08:37:18Z</time>
      </trkpt>
      <trkpt lat="45.65543" lon="6.25341">
        <ele>1242.3</ele>
        <time>2015-05-24T08:37:49Z</time>
      </trkpt>
      <trkpt lat="45.65557" lon="6.2536">
        <ele>1240.75</ele>
        <time>2015-05-24T08:38:29Z</time>
      </trkpt>
      <trkpt lat="45.65571" lon="6.2538">
        <ele>1253.13</ele>
        <time>2015-05-24T08:39:56Z</time>
      </trkpt>
      <trkpt lat="45.65588" lon="6.25393">
        <ele>1256.77</ele>
        <time>2015-05-24T08:40:08Z</time>
      </trkpt>
      <trkpt lat="45.65605" lon="6.25403">
        <ele>1267.13</ele>
        <time>2015-05-24T08:40:40Z</time>
      </trkpt>
      <trkpt lat="45.65626" lon="6.25408">
        <ele>1263.89</ele>
        <time>2015-05-24T08:41:16Z</time>
      </trkpt>
      <trkpt lat="45.65646" lon="6.25408">
        <ele>1268.83</ele>
        <time>2015-05-24T08:41:27Z</time>
      </trkpt>
      <trkpt lat="45.65663" lon="6.25415">
        <ele>1276.29</ele>
        <time>2015-05-24T08:41:41Z</time>
      </trkpt>
      <trkpt lat="45.6568" lon="6.25425">
        <ele>1274.13</ele>
        <time>2015-05-24T08:42:23Z</time>
      </trkpt>
      <trkpt lat="45.657" lon="6.25434">
        <ele>1279.15</ele>
        <time>2015-05-24T08:42:30Z</time>
      </trkpt>
      <trkpt lat="45.65717" lon="6.25447">
        <ele>1276.77</ele>
        <time>2015-05-24T08:42:39Z</time>
      </trkpt>
      <trkpt lat="45.65734" lon="6.25463">
        <ele>1284.32</ele>
        <time>2015-05-24T08:43:26Z</time>
      </trkpt>
      <trkpt lat="45.65749" lon="6.25477">
        <ele>1283.9</ele>
        <time>2015-05-24T08:43:48Z</time>
      </trkpt>
      <trkpt lat="45.65765" lon="6.25489">
        <ele>1275.75</ele>
        <time>2015-05-24T08:45:35Z</time>
      </trkpt>
      <trkpt lat="45.65783" lon="6.25486">
        <ele>1265.14</ele>
        <time>2015-05-24T08:45:59Z</time>
      </trkpt>
      <trkpt lat="45.65801" lon="6.25492">
        <ele>1251.94</ele>
        <time>2015-05-24T08:46:07Z</time>
      </trkpt>
      <trkpt lat="45.65819" lon="6.25489">
        <ele>1250.26</ele>
        <time>2015-05-24T08:46:16Z</time>
      </trkpt>
      <trkpt lat="45.65838" lon="6.25487">
        <ele>1257.38</ele>
        <time>2015-05-24T08:46:45Z</time>
      </trkpt>
      <trkpt lat="45.65856" lon="6.25485">
        <ele>1244.94</ele>
        <time>2015-05-24T08:46:55Z</time>
      </trkpt>
      <trkpt lat="45.65874" lon="6.25478">
        <ele>1249.97</ele>
        <time>2015-05-24T08:47:06Z</time>
      </trkpt>
      <trkpt lat="45.65891" lon="6.2547">
        <ele>1261.04</ele>
        <time>2015-05-24T08:47:17Z</time>
      </trkpt>
      <trkpt lat="45.6591" lon="6.2547">
        <ele>1264.06</ele>
        <time>2015-05-24T08:48:29Z</time>
      </trkpt>
      <trkpt lat="45.65928" lon="6.25471">
        <ele>1271.31</ele>
        <time>2015-05-24T08:48:58Z</time>
      </trkpt>
      <trkpt lat="45.65946" lon="6.2547">
        <ele>1271.68</ele>
        <time>2015-05-24T08:49:21Z</time>
      </trkpt>
      <trkpt lat="45.65964" lon="6.25464">
        <ele>1272.88</ele>
        <time>2015-05-24T08:49:53Z</time>
      </trkpt>
      <trkpt lat="45.65983" lon="6.25464">
        <ele>1287.29</ele>
        <time>2015-05-24T08:50:17Z</time>
      </trkpt>
      <trkpt lat="45.65999" lon="6.25477">
        <ele>1289.83</ele>
        <time>2015-05-24T08:50:51Z</time>
      </trkpt>
      <trkpt lat="45.66001" lon="6.25503">
        <ele>1309.38</ele>
        <time>2015-05-24T08:53:04Z</time>
      </trkpt>
      <trkpt lat="45.66011" lon="6.25526">
        <ele>1316.88</ele>
        <time>2015-05-24T08:55:02Z</time>
      </trkpt>
      <trkpt lat="45.66013" lon="6.25553">
        <ele>1317.6</ele>
        <time>2015-05-24T08:55:25Z</time>
      </trkpt>
      <trkpt lat="45.65999" lon="6.2557">
        <ele>1323.88</ele>
        <time>2015-05-24T08:57:23Z</time>
      </trkpt>
      <trkpt lat="45.66001" lon="6.25598">
        <ele>1343.38</ele>
        <time>2015-05-24T08:58:40Z</time>
      </trkpt>
      <trkpt lat="45.6602" lon="6.25608">
        <ele>1353.55</ele>
        <time>2015-05-24T08:58:51Z</time>
      </trkpt>
      <trkpt lat="45.66035" lon="6.25625">
        <ele>1371.93</ele>
        <time>2015-05-24T08:59:34Z</time>
      </trkpt>
      <trkpt lat="45.66051" lon="6.25635">
        <ele>1372.94</ele>
        <time>2015-05-24T09:00:03Z</time>
      </trkpt>
      <trkpt lat="45.66061" lon="6.25657">
        <ele>1377.54</ele>
        <time>2015-05-24T09:00:42Z</time>
      </trkpt>
      <trkpt lat="45.66079" lon="6.25665">
        <ele>1387.89</ele>
        <time>2015-05-24T09:01:49Z</time>
      </trkpt>
      <trkpt lat="45.66096" lon="6.25674">
        <ele>1389.89</ele>
        <time>2015-05-24T09:02:19Z</time>
      </trkpt>
      <trkpt lat="45.66113" lon="6.25688">
        <ele>1391.44</ele>
        <time>2015-05-24T09:02:52Z</time>
      </trkpt>
      <trkpt lat="45.66128" lon="6.25703">
        <ele>1392.33</ele>
        <time>2015-05-24T09:03:17Z</time>
      </trkpt>
      <trkpt lat="45.66141" lon="6.25721">
        <ele>1405.42</ele>
        <time>2015-05-24T09:03:57Z</time>
      </trkpt>
      <trkpt lat="45.66141" lon="6.25748">
        <ele>1427.69</ele>
        <time>2015-05-24T09:05:37Z</time>
      </trkpt>
      <trkpt lat="45.66153" lon="6.25767">
        <ele>1432.81</ele>
        <time>2015-05-24T09:06:17Z</time>
      </trkpt>
      <trkpt lat="45.66172" lon="6.25779">
        <ele>1435.32</ele>
        <time>2015-05-24T09:06:40Z</time>
      </trkpt>
      <trkpt lat="45.66171" lon="6.25805">
        <ele>1443.25</ele>
        <time>2015-05-24T09:07:53Z</time>
      </trkpt>
      <trkpt lat="45.66172" lon="6.25831">
        <ele>1445.69</ele>
        <time>2015-05-24T09:08:40Z</time>
      </trkpt>
      <trkpt lat="45.66154" lon="6.25833">
        <ele>1456.63</ele>
        <time>2015-05-24T09:09:57Z</time>
      </trkpt>
      <trkpt lat="45.66151" lon="6.2586">
        <ele>1467.75</ele>
        <time>2015-05-24T09:11:47Z</time>
      </trkpt>
      <trkpt lat="45.66152" lon="6.25886">
        <ele>1468.75</ele>
        <time>2015-05-24T09:12:48Z</time>
      </trkpt>
      <trkpt lat="45.66168" lon="6.259">
        <ele>1481.69</ele>
        <time>2015-05-24T09:12:58Z</time>
      </trkpt>
      <trkpt lat="45.66181" lon="6.25917">
        <ele>1478.49</ele>
        <time>2015-05-24T09:13:18Z</time>
      </trkpt>
      <trkpt lat="45.66202" lon="6.25917">
        <ele>1468.13</ele>
        <time>2015-05-24T09:15:09Z</time>
      </trkpt>
      <trkpt lat="45.66216" lon="6.25932">
        <ele>1462.57</ele>
        <time>2015-05-24T09:15:21Z</time>
      </trkpt>
      <trkpt lat="45.66235" lon="6.25943">
        <ele>1465.98</ele>
        <time>2015-05-24T09:15:34Z</time>
      </trkpt>
      <trkpt lat="45.66248" lon="6.25962">
        <ele>1467.29</ele>
        <time>2015-05-24T09:15:48Z</time>
      </trkpt>
      <trkpt lat="45.66263" lon="6.25977">
        <ele>1463.95</ele>
        <time>2015-05-24T09:16:08Z</time>
      </trkpt>
      <trkpt lat="45.66279" lon="6.25994">
        <ele>1466.1</ele>
        <time>2015-05-24T09:16:34Z</time>
      </trkpt>
      <trkpt lat="45.66294" lon="6.2601">
        <ele>1464.71</ele>
        <time>2015-05-24T09:16:58Z</time>
      </trkpt>
      <trkpt lat="45.66305" lon="6.26031">
        <ele>1472.32</ele>
        <time>2015-05-24T09:17:23Z</time>
      </trkpt>
      <trkpt lat="45.66321" lon="6.26044">
        <ele>1468.86</ele>
        <time>2015-05-24T09:17:43Z</time>
      </trkpt>
      <trkpt lat="45.6634" lon="6.26049">
        <ele>1461.27</ele>
        <time>2015-05-24T09:18:27Z</time>
      </trkpt>
      <trkpt lat="45.66358" lon="6.26058">
        <ele>1459.28</ele>
        <time>2015-05-24T09:18:40Z</time>
      </trkpt>
      <trkpt lat="45.66376" lon="6.26065">
        <ele>1456.23</ele>
        <time>2015-05-24T09:19:03Z</time>
      </trkpt>
      <trkpt lat="45.66394" lon="6.26068">
        <ele>1455.01</ele>
        <time>2015-05-24T09:19:24Z</time>
      </trkpt>
      <trkpt lat="45.66406" lon="6.26087">
        <ele>1455.63</ele>
        <time>2015-05-24T09:20:06Z</time>
      </trkpt>
      <trkpt lat="45.66426" lon="6.26097">
        <ele>1456.6</ele>
        <time>2015-05-24T09:20:28Z</time>
      </trkpt>
      <trkpt lat="45.66444" lon="6.26101">
        <ele>1459.57</ele>
        <time>2015-05-24T09:20:40Z</time>
      </trkpt>
      <trkpt lat="45.66462" lon="6.26109">
        <ele>1463.13</ele>
        <time>2015-05-24T09:20:55Z</time>
      </trkpt>
      <trkpt lat="45.66477" lon="6.26123">
        <ele>1455.41</ele>
        <time>2015-05-24T09:21:10Z</time>
      </trkpt>
      <trkpt lat="45.66494" lon="6.26141">
        <ele>1458.35</ele>
        <time>2015-05-24T09:21:46Z</time>
      </trkpt>
      <trkpt lat="45.66513" lon="6.26151">
        <ele>1451.76</ele>
        <time>2015-05-24T09:22:00Z</time>
      </trkpt>
      <trkpt lat="45.6653" lon="6.26162">
        <ele>1454.11</ele>
        <time>2015-05-24T09:22:16Z</time>
      </trkpt>
      <trkpt lat="45.66541" lon="6.26183">
        <ele>1455.08</ele>
        <time>2015-05-24T09:22:38Z</time>
      </trkpt>
      <trkpt lat="45.66557" lon="6.26196">
        <ele>1460.67</ele>
        <time>2015-05-24T09:23:09Z</time>
      </trkpt>
      <trkpt lat="45.66571" lon="6.26214">
        <ele>1462.69</ele>
        <time>2015-05-24T09:23:35Z</time>
      </trkpt>
      <trkpt lat="45.66585" lon="6.26231">
        <ele>1458.26</ele>
        <time>2015-05-24T09:23:56Z</time>
      </trkpt>
      <trkpt lat="45.66597" lon="6.26251">
        <ele>1462.86</ele>
        <time>2015-05-24T09:24:19Z</time>
      </trkpt>
      <trkpt lat="45.66612" lon="6.26267">
        <ele>1462.07</ele>
        <time>2015-05-24T09:25:01Z</time>
      </trkpt>
      <trkpt lat="45.66627" lon="6.2628">
        <ele>1466.04</ele>
        <time>2015-05-24T09:25:26Z</time>
      </trkpt>
      <trkpt lat="45.66642" lon="6.26297">
        <ele>1463.88</ele>
        <time>2015-05-24T09:25:51Z</time>
      </trkpt>
      <trkpt lat="45.66658" lon="6.26309">
        <ele>1474.07</ele>
        <time>2015-05-24T09:26:07Z</time>
      </trkpt>
      <trkpt lat="45.66673" lon="6.26326">
        <ele>1472.8</ele>
        <time>2015-05-24T09:26:36Z</time>
      </trkpt>
      <trkpt lat="45.66687" lon="6.26342">
        <ele>1474.37</ele>
        <time>2015-05-24T09:26:57Z</time>
      </trkpt>
      <trkpt lat="45.66702" lon="6.26358">
        <ele>1468.2</ele>
        <time>2015-05-24T09:27:22Z</time>
      </trkpt>
      <trkpt lat="45.66717" lon="6.26373">
        <ele>1473.15</ele>
        <time>2015-05-24T09:27:49Z</time>
      </trkpt>
      <trkpt lat="45.6673" lon="6.26391">
        <ele>1474.4</ele>
        <time>2015-05-24T09:28:16Z</time>
      </trkpt>
      <trkpt lat="45.66742" lon="6.26412">
        <ele>1477.15</ele>
        <time>2015-05-24T09:28:46Z</time>
      </trkpt>
      <trkpt lat="45.66754" lon="6.2643">
        <ele>1482.48</ele>
        <time>2015-05-24T09:29:08Z</time>
      </trkpt>
      <trkpt lat="45.66763" lon="6.26453">
        <ele>1489.95</ele>
        <time>2015-05-24T09:29:45Z</time>
      </trkpt>
      <trkpt lat="45.66774" lon="6.26474">
        <ele>1493.71</ele>
        <time>2015-05-24T09:30:15Z</time>
      </trkpt>
      <trkpt lat="45.66779" lon="6.26498">
        <ele>1495.76</ele>
        <time>2015-05-24T09:30:47Z</time>
      </trkpt>
      <trkpt lat="45.66788" lon="6.26521">
        <ele>1500.5</ele>
        <time>2015-05-24T09:31:36Z</time>
      </trkpt>
      <trkpt lat="45.66795" lon="6.26545">
        <ele>1501.91</ele>
        <time>2015-05-24T09:32:43Z</time>
      </trkpt>
      <trkpt lat="45.66797" lon="6.2657">
        <ele>1499.74</ele>
        <time>2015-05-24T09:33:18Z</time>
      </trkpt>
      <trkpt lat="45.66797" lon="6.26596">
        <ele>1505.8</ele>
        <time>2015-05-24T09:33:50Z</time>
      </trkpt>
      <trkpt lat="45.66792" lon="6.26622">
        <ele>1503.88</ele>
        <time>2015-05-24T09:34:13Z</time>
      </trkpt>
      <trkpt lat="45.66793" lon="6.26648">
        <ele>1503.88</ele>
        <time>2015-05-24T09:34:34Z</time>
      </trkpt>
      <trkpt lat="45.66786" lon="6.26672">
        <ele>1500.83</ele>
        <time>2015-05-24T09:35:33Z</time>
      </trkpt>
      <trkpt lat="45.66771" lon="6.26687">
        <ele>1502.5</ele>
        <time>2015-05-24T09:36:08Z</time>
      </trkpt>
      <trkpt lat="45.66762" lon="6.26709">
        <ele>1509.88</ele>
        <time>2015-05-24T09:37:05Z</time>
      </trkpt>
      <trkpt lat="45.66772" lon="6.26731">
        <ele>1508.83</ele>
        <time>2015-05-24T09:37:33Z</time>
      </trkpt>
      <trkpt lat="45.66779" lon="6.26755">
        <ele>1506.89</ele>
        <time>2015-05-24T09:37:54Z</time>
      </trkpt>
      <trkpt lat="45.66787" lon="6.26779">
        <ele>1507.88</ele>
        <time>2015-05-24T09:38:14Z</time>
      </trkpt>
      <trkpt lat="45.66796" lon="6.26802">
        <ele>1507.79</ele>
        <time>2015-05-24T09:38:34Z</time>
      </trkpt>
      <trkpt lat="45.66809" lon="6.26821">
        <ele>1508.94</ele>
        <time>2015-05-24T09:38:52Z</time>
      </trkpt>
      <trkpt lat="45.66822" lon="6.2684">
        <ele>1509.41</ele>
        <time>2015-05-24T09:39:09Z</time>
      </trkpt>
      <trkpt lat="45.66837" lon="6.26856">
        <ele>1509.88</ele>
        <time>2015-05-24T09:39:26Z</time>
      </trkpt>
      <trkpt lat="45.66853" lon="6.26869">
        <ele>1510</ele>
        <time>2015-05-24T09:39:43Z</time>
      </trkpt>
      <trkpt lat="45.66868" lon="6.26885">
        <ele>1510.89</ele>
        <time>2015-05-24T09:40:01Z</time>
      </trkpt>
      <trkpt lat="45.66878" lon="6.26907">
        <ele>1510.13</ele>
        <time>2015-05-24T09:40:21Z</time>
      </trkpt>
      <trkpt lat="45.66884" lon="6.26932">
        <ele>1514.75</ele>
        <time>2015-05-24T09:41:19Z</time>
      </trkpt>
      <trkpt lat="45.66889" lon="6.26957">
        <ele>1518.87</ele>
        <time>2015-05-24T09:41:50Z</time>
      </trkpt>
      <trkpt lat="45.66889" lon="6.26983">
        <ele>1521.85</ele>
        <time>2015-05-24T09:42:16Z</time>
      </trkpt>
      <trkpt lat="45.66905" lon="6.26995">
        <ele>1526.88</ele>
        <time>2015-05-24T09:43:03Z</time>
      </trkpt>
      <trkpt lat="45.66921" lon="6.27008">
        <ele>1530.83</ele>
        <time>2015-05-24T09:43:30Z</time>
      </trkpt>
      <trkpt lat="45.66939" lon="6.27015">
        <ele>1533.05</ele>
        <time>2015-05-24T09:43:55Z</time>
      </trkpt>
      <trkpt lat="45.66957" lon="6.27012">
        <ele>1531.69</ele>
        <time>2015-05-24T09:44:15Z</time>
      </trkpt>
      <trkpt lat="45.66975" lon="6.27013">
        <ele>1534.86</ele>
        <time>2015-05-24T09:44:52Z</time>
      </trkpt>
      <trkpt lat="45.66993" lon="6.27022">
        <ele>1539.69</ele>
        <time>2015-05-24T09:45:31Z</time>
      </trkpt>
      <trkpt lat="45.6701" lon="6.27031">
        <ele>1544.75</ele>
        <time>2015-05-24T09:46:20Z</time>
      </trkpt>
      <trkpt lat="45.67028" lon="6.27036">
        <ele>1554.32</ele>
        <time>2015-05-24T09:47:17Z</time>
      </trkpt>
      <trkpt lat="45.67028" lon="6.27062">
        <ele>1563.79</ele>
        <time>2015-05-24T09:48:05Z</time>
      </trkpt>
      <trkpt lat="45.67036" lon="6.27086">
        <ele>1572.75</ele>
        <time>2015-05-24T09:50:08Z</time>
      </trkpt>
      <trkpt lat="45.67048" lon="6.27105">
        <ele>1584.36</ele>
        <time>2015-05-24T09:51:00Z</time>
      </trkpt>
      <trkpt lat="45.67064" lon="6.27117">
        <ele>1589.85</ele>
        <time>2015-05-24T09:51:38Z</time>
      </trkpt>
      <trkpt lat="45.67079" lon="6.27132">
        <ele>1600.75</ele>
        <time>2015-05-24T09:52:18Z</time>
      </trkpt>
      <trkpt lat="45.67094" lon="6.27147">
        <ele>1611.84</ele>
        <time>2015-05-24T09:53:18Z</time>
      </trkpt>
      <trkpt lat="45.67109" lon="6.27162">
        <ele>1619.81</ele>
        <time>2015-05-24T09:54:04Z</time>
      </trkpt>
      <trkpt lat="45.67126" lon="6.27172">
        <ele>1623.06</ele>
        <time>2015-05-24T09:54:33Z</time>
      </trkpt>
      <trkpt lat="45.67144" lon="6.27179">
        <ele>1630.87</ele>
        <time>2015-05-24T09:55:02Z</time>
      </trkpt>
      <trkpt lat="45.67163" lon="6.27183">
        <ele>1636.38</ele>
        <time>2015-05-24T09:55:40Z</time>
      </trkpt>
      <trkpt lat="45.67182" lon="6.2719">
        <ele>1640.44</ele>
        <time>2015-05-24T09:56:11Z</time>
      </trkpt>
      <trkpt lat="45.67168" lon="6.27206">
        <ele>1644.12</ele>
        <time>2015-05-24T09:57:09Z</time>
      </trkpt>
      <trkpt lat="45.67178" lon="6.27229">
        <ele>1654.96</ele>
        <time>2015-05-24T09:57:55Z</time>
      </trkpt>
      <trkpt lat="45.67194" lon="6.27241">
        <ele>1661.87</ele>
        <time>2015-05-24T09:58:43Z</time>
      </trkpt>
      <trkpt lat="45.67211" lon="6.2725">
        <ele>1669.38</ele>
        <time>2015-05-24T09:59:12Z</time>
      </trkpt>
      <trkpt lat="45.67229" lon="6.27254">
        <ele>1681.08</ele>
        <time>2015-05-24T10:00:14Z</time>
      </trkpt>
      <trkpt lat="45.67245" lon="6.27264">
        <ele>1689.41</ele>
        <time>2015-05-24T10:01:26Z</time>
      </trkpt>
      <trkpt lat="45.67263" lon="6.27267">
        <ele>1701.24</ele>
        <time>2015-05-24T10:02:22Z</time>
      </trkpt>
      <trkpt lat="45.6728" lon="6.27278">
        <ele>1709.61</ele>
        <time>2015-05-24T10:03:22Z</time>
      </trkpt>
      <trkpt lat="45.67295" lon="6.27291">
        <ele>1715.88</ele>
        <time>2015-05-24T10:03:59Z</time>
      </trkpt>
      <trkpt lat="45.67306" lon="6.27313">
        <ele>1721.05</ele>
        <time>2015-05-24T10:04:33Z</time>
      </trkpt>
      <trkpt lat="45.67316" lon="6.27334">
        <ele>1724.64</ele>
        <time>2015-05-24T10:05:41Z</time>
      </trkpt>
      <trkpt lat="45.6733" lon="6.27352">
        <ele>1731.31</ele>
        <time>2015-05-24T10:06:20Z</time>
      </trkpt>
      <trkpt lat="45.67346" lon="6.2734">
        <ele>1745.75</ele>
        <time>2015-05-24T10:07:56Z</time>
      </trkpt>
      <trkpt lat="45.67362" lon="6.27354">
        <ele>1753.71</ele>
        <time>2015-05-24T10:08:42Z</time>
      </trkpt>
      <trkpt lat="45.67376" lon="6.27373">
        <ele>1765.74</ele>
        <time>2015-05-24T10:09:26Z</time>
      </trkpt>
      <trkpt lat="45.67392" lon="6.27387">
        <ele>1771.37</ele>
        <time>2015-05-24T10:09:58Z</time>
      </trkpt>
      <trkpt lat="45.67409" lon="6.27393">
        <ele>1776.68</ele>
        <time>2015-05-24T10:10:36Z</time>
      </trkpt>
      <trkpt lat="45.67424" lon="6.27408">
        <ele>1789.28</ele>
        <time>2015-05-24T10:11:24Z</time>
      </trkpt>
      <trkpt lat="45.67443" lon="6.27413">
        <ele>1792.76</ele>
        <time>2015-05-24T10:12:25Z</time>
      </trkpt>
      <trkpt lat="45.67461" lon="6.2742">
        <ele>1802.4</ele>
        <time>2015-05-24T10:13:45Z</time>
      </trkpt>
      <trkpt lat="45.67476" lon="6.27434">
        <ele>1818.56</ele>
        <time>2015-05-24T10:15:05Z</time>
      </trkpt>
      <trkpt lat="45.67495" lon="6.27436">
        <ele>1827.31</ele>
        <time>2015-05-24T10:16:01Z</time>
      </trkpt>
      <trkpt lat="45.67513" lon="6.27442">
        <ele>1834.91</ele>
        <time>2015-05-24T10:17:00Z</time>
      </trkpt>
      <trkpt lat="45.67531" lon="6.2745">
        <ele>1842.75</ele>
        <time>2015-05-24T10:18:10Z</time>
      </trkpt>
      <trkpt lat="45.67546" lon="6.27438">
        <ele>1850.35</ele>
        <time>2015-05-24T10:18:57Z</time>
      </trkpt>
      <trkpt lat="45.67544" lon="6.27463">
        <ele>1858.87</ele>
        <time>2015-05-24T10:20:29Z</time>
      </trkpt>
      <trkpt lat="45.67552" lon="6.2744">
        <ele>1854.02</ele>
        <time>2015-05-24T10:24:47Z</time>
      </trkpt>
      <trkpt lat="45.67562" lon="6.27418">
        <ele>1845.03</ele>
        <time>2015-05-24T10:25:57Z</time>
      </trkpt>
      <trkpt lat="45.67577" lon="6.27403">
        <ele>1836.92</ele>
        <time>2015-05-24T10:26:26Z</time>
      </trkpt>
      <trkpt lat="45.67589" lon="6.27384">
        <ele>1826.39</ele>
        <time>2015-05-24T10:27:06Z</time>
      </trkpt>
      <trkpt lat="45.67597" lon="6.2736">
        <ele>1814.65</ele>
        <time>2015-05-24T10:27:43Z</time>
      </trkpt>
      <trkpt lat="45.67604" lon="6.27336">
        <ele>1803.29</ele>
        <time>2015-05-24T10:28:10Z</time>
      </trkpt>
      <trkpt lat="45.67618" lon="6.27318">
        <ele>1799.19</ele>
        <time>2015-05-24T10:28:41Z</time>
      </trkpt>
      <trkpt lat="45.6763" lon="6.273">
        <ele>1796.21</ele>
        <time>2015-05-24T10:28:59Z</time>
      </trkpt>
      <trkpt lat="45.67645" lon="6.27285">
        <ele>1794.08</ele>
        <time>2015-05-24T10:29:25Z</time>
      </trkpt>
      <trkpt lat="45.67658" lon="6.27265">
        <ele>1779.23</ele>
        <time>2015-05-24T10:30:01Z</time>
      </trkpt>
      <trkpt lat="45.67671" lon="6.27245">
        <ele>1773.4</ele>
        <time>2015-05-24T10:30:23Z</time>
      </trkpt>
      <trkpt lat="45.67684" lon="6.27227">
        <ele>1766.14</ele>
        <time>2015-05-24T10:30:46Z</time>
      </trkpt>
      <trkpt lat="45.67699" lon="6.27211">
        <ele>1762.94</ele>
        <time>2015-05-24T10:31:01Z</time>
      </trkpt>
      <trkpt lat="45.67714" lon="6.27198">
        <ele>1761.88</ele>
        <time>2015-05-24T10:31:48Z</time>
      </trkpt>
      <trkpt lat="45.6773" lon="6.27184">
        <ele>1762.63</ele>
        <time>2015-05-24T10:32:13Z</time>
      </trkpt>
      <trkpt lat="45.67747" lon="6.27173">
        <ele>1762.98</ele>
        <time>2015-05-24T10:32:53Z</time>
      </trkpt>
      <trkpt lat="45.67759" lon="6.27153">
        <ele>1763.88</ele>
        <time>2015-05-24T10:33:10Z</time>
      </trkpt>
      <trkpt lat="45.67775" lon="6.27138">
        <ele>1766.74</ele>
        <time>2015-05-24T10:33:28Z</time>
      </trkpt>
      <trkpt lat="45.67791" lon="6.27123">
        <ele>1770.84</ele>
        <time>2015-05-24T10:33:53Z</time>
      </trkpt>
      <trkpt lat="45.67806" lon="6.2711">
        <ele>1773.84</ele>
        <time>2015-05-24T10:34:14Z</time>
      </trkpt>
      <trkpt lat="45.67821" lon="6.27094">
        <ele>1776.34</ele>
        <time>2015-05-24T10:34:36Z</time>
      </trkpt>
      <trkpt lat="45.67834" lon="6.27076">
        <ele>1779.87</ele>
        <time>2015-05-24T10:35:01Z</time>
      </trkpt>
      <trkpt lat="45.67845" lon="6.27054">
        <ele>1781.86</ele>
        <time>2015-05-24T10:35:22Z</time>
      </trkpt>
      <trkpt lat="45.67857" lon="6.27034">
        <ele>1787.34</ele>
        <time>2015-05-24T10:35:48Z</time>
      </trkpt>
      <trkpt lat="45.67871" lon="6.27016">
        <ele>1790.34</ele>
        <time>2015-05-24T10:36:12Z</time>
      </trkpt>
      <trkpt lat="45.67884" lon="6.26997">
        <ele>1792.75</ele>
        <time>2015-05-24T10:36:36Z</time>
      </trkpt>
      <trkpt lat="45.67898" lon="6.2698">
        <ele>1795.88</ele>
        <time>2015-05-24T10:37:03Z</time>
      </trkpt>
      <trkpt lat="45.67911" lon="6.26961">
        <ele>1799.86</ele>
        <time>2015-05-24T10:37:31Z</time>
      </trkpt>
      <trkpt lat="45.67922" lon="6.2694">
        <ele>1803.38</ele>
        <time>2015-05-24T10:37:59Z</time>
      </trkpt>
      <trkpt lat="45.67931" lon="6.26918">
        <ele>1805.38</ele>
        <time>2015-05-24T10:38:25Z</time>
      </trkpt>
      <trkpt lat="45.67941" lon="6.26895">
        <ele>1808.88</ele>
        <time>2015-05-24T10:39:08Z</time>
      </trkpt>
      <trkpt lat="45.67953" lon="6.26876">
        <ele>1811.75</ele>
        <time>2015-05-24T10:39:33Z</time>
      </trkpt>
      <trkpt lat="45.67966" lon="6.26857">
        <ele>1817.75</ele>
        <time>2015-05-24T10:40:49Z</time>
      </trkpt>
      <trkpt lat="45.67981" lon="6.26842">
        <ele>1824.8</ele>
        <time>2015-05-24T10:41:25Z</time>
      </trkpt>
      <trkpt lat="45.67996" lon="6.26827">
        <ele>1831.86</ele>
        <time>2015-05-24T10:42:15Z</time>
      </trkpt>
      <trkpt lat="45.68006" lon="6.26806">
        <ele>1839.38</ele>
        <time>2015-05-24T10:43:08Z</time>
      </trkpt>
      <trkpt lat="45.68023" lon="6.26796">
        <ele>1847.75</ele>
        <time>2015-05-24T10:44:06Z</time>
      </trkpt>
      <trkpt lat="45.68033" lon="6.26774">
        <ele>1854.74</ele>
        <time>2015-05-24T10:44:44Z</time>
      </trkpt>
      <trkpt lat="45.68047" lon="6.26757">
        <ele>1859.85</ele>
        <time>2015-05-24T10:45:21Z</time>
      </trkpt>
      <trkpt lat="45.6806" lon="6.26739">
        <ele>1866.75</ele>
        <time>2015-05-24T10:46:00Z</time>
      </trkpt>
      <trkpt lat="45.68075" lon="6.26724">
        <ele>1875.34</ele>
        <time>2015-05-24T10:46:41Z</time>
      </trkpt>
      <trkpt lat="45.68082" lon="6.267">
        <ele>1881.74</ele>
        <time>2015-05-24T10:47:19Z</time>
      </trkpt>
      <trkpt lat="45.68096" lon="6.26683">
        <ele>1890.81</ele>
        <time>2015-05-24T10:48:26Z</time>
      </trkpt>
      <trkpt lat="45.68092" lon="6.26658">
        <ele>1894.62</ele>
        <time>2015-05-24T10:49:07Z</time>
      </trkpt>
      <trkpt lat="45.68093" lon="6.26632">
        <ele>1900.84</ele>
        <time>2015-05-24T10:49:45Z</time>
      </trkpt>
      <trkpt lat="45.68095" lon="6.26606">
        <ele>1904.39</ele>
        <time>2015-05-24T10:50:20Z</time>
      </trkpt>
      <trkpt lat="45.68099" lon="6.2658">
        <ele>1908.85</ele>
        <time>2015-05-24T10:51:36Z</time>
      </trkpt>
      <trkpt lat="45.68108" lon="6.26558">
        <ele>1914.69</ele>
        <time>2015-05-24T10:52:13Z</time>
      </trkpt>
      <trkpt lat="45.68123" lon="6.26543">
        <ele>1924.87</ele>
        <time>2015-05-24T10:53:05Z</time>
      </trkpt>
      <trkpt lat="45.68128" lon="6.26518">
        <ele>1930</ele>
        <time>2015-05-24T10:53:39Z</time>
      </trkpt>
      <trkpt lat="45.68125" lon="6.26492">
        <ele>1930.88</ele>
        <time>2015-05-24T10:54:07Z</time>
      </trkpt>
      <trkpt lat="45.68127" lon="6.26466">
        <ele>1932.88</ele>
        <time>2015-05-24T10:54:34Z</time>
      </trkpt>
      <trkpt lat="45.68133" lon="6.26441">
        <ele>1934.88</ele>
        <time>2015-05-24T10:55:05Z</time>
      </trkpt>
      <trkpt lat="45.68134" lon="6.26415">
        <ele>1933.88</ele>
        <time>2015-05-24T10:55:41Z</time>
      </trkpt>
      <trkpt lat="45.6815" lon="6.26401">
        <ele>1938.13</ele>
        <time>2015-05-24T11:25:14Z</time>
      </trkpt>
      <trkpt lat="45.68154" lon="6.26375">
        <ele>1940.85</ele>
        <time>2015-05-24T11:25:38Z</time>
      </trkpt>
      <trkpt lat="45.68159" lon="6.26351">
        <ele>1943.74</ele>
        <time>2015-05-24T11:26:03Z</time>
      </trkpt>
      <trkpt lat="45.68166" lon="6.26326">
        <ele>1948.74</ele>
        <time>2015-05-24T11:26:34Z</time>
      </trkpt>
      <trkpt lat="45.68168" lon="6.26301">
        <ele>1950.88</ele>
        <time>2015-05-24T11:27:08Z</time>
      </trkpt>
      <trkpt lat="45.68173" lon="6.26276">
        <ele>1956.69</ele>
        <time>2015-05-24T11:27:46Z</time>
      </trkpt>
      <trkpt lat="45.68177" lon="6.2625">
        <ele>1962.75</ele>
        <time>2015-05-24T11:28:23Z</time>
      </trkpt>
      <trkpt lat="45.68177" lon="6.26224">
        <ele>1969.86</ele>
        <time>2015-05-24T11:29:02Z</time>
      </trkpt>
      <trkpt lat="45.68177" lon="6.26198">
        <ele>1976.87</ele>
        <time>2015-05-24T11:29:43Z</time>
      </trkpt>
      <trkpt lat="45.68179" lon="6.26172">
        <ele>1983.69</ele>
        <time>2015-05-24T11:30:19Z</time>
      </trkpt>
      <trkpt lat="45.68183" lon="6.26147">
        <ele>1988.25</ele>
        <time>2015-05-24T11:31:12Z</time>
      </trkpt>
      <trkpt lat="45.68185" lon="6.26121">
        <ele>1994.83</ele>
        <time>2015-05-24T11:32:00Z</time>
      </trkpt>
      <trkpt lat="45.68189" lon="6.26096">
        <ele>2004.3</ele>
        <time>2015-05-24T11:32:57Z</time>
      </trkpt>
      <trkpt lat="45.68193" lon="6.2607">
        <ele>2009.86</ele>
        <time>2015-05-24T11:33:46Z</time>
      </trkpt>
      <trkpt lat="45.68194" lon="6.26045">
        <ele>2016.72</ele>
        <time>2015-05-24T11:34:58Z</time>
      </trkpt>
      <trkpt lat="45.68195" lon="6.26018">
        <ele>2026.84</ele>
        <time>2015-05-24T11:36:03Z</time>
      </trkpt>
      <trkpt lat="45.68199" lon="6.25993">
        <ele>2032.88</ele>
        <time>2015-05-24T11:37:28Z</time>
      </trkpt>
      <trkpt lat="45.68212" lon="6.25975">
        <ele>2045.99</ele>
        <time>2015-05-24T11:39:09Z</time>
      </trkpt>
      <trkpt lat="45.68215" lon="6.25949">
        <ele>2066.85</ele>
        <time>2015-05-24T11:40:41Z</time>
      </trkpt>
      <trkpt lat="45.68231" lon="6.25938">
        <ele>2079.25</ele>
        <time>2015-05-24T11:41:37Z</time>
      </trkpt>
      <trkpt lat="45.68247" lon="6.25926">
        <ele>2091.93</ele>
        <time>2015-05-24T11:42:42Z</time>
      </trkpt>
      <trkpt lat="45.68256" lon="6.25903">
        <ele>2100.75</ele>
        <time>2015-05-24T11:45:05Z</time>
      </trkpt>
      <trkpt lat="45.68249" lon="6.2588">
        <ele>2110.32</ele>
        <time>2015-05-24T11:45:58Z</time>
      </trkpt>
      <trkpt lat="45.68259" lon="6.25859">
        <ele>2126.34</ele>
        <time>2015-05-24T11:47:14Z</time>
      </trkpt>
      <trkpt lat="45.68278" lon="6.25854">
        <ele>2131.74</ele>
        <time>2015-05-24T11:47:52Z</time>
      </trkpt>
      <trkpt lat="45.68293" lon="6.25842">
        <ele>2135.14</ele>
        <time>2015-05-24T11:48:24Z</time>
      </trkpt>
      <trkpt lat="45.6831" lon="6.2583">
        <ele>2136.76</ele>
        <time>2015-05-24T11:48:57Z</time>
      </trkpt>
      <trkpt lat="45.68327" lon="6.25822">
        <ele>2141.81</ele>
        <time>2015-05-24T11:49:29Z</time>
      </trkpt>
      <trkpt lat="45.68345" lon="6.2582">
        <ele>2152.85</ele>
        <time>2015-05-24T11:50:29Z</time>
      </trkpt>
      <trkpt lat="45.68364" lon="6.25822">
        <ele>2163.86</ele>
        <time>2015-05-24T11:51:39Z</time>
      </trkpt>
      <trkpt lat="45.68382" lon="6.25824">
        <ele>2174.31</ele>
        <time>2015-05-24T11:52:34Z</time>
      </trkpt>
      <trkpt lat="45.68388" lon="6.25823">
        <ele>2173.53</ele>
        <time>2015-05-24T11:56:18Z</time>
      </trkpt>
      <trkpt lat="45.68396" lon="6.25799">
        <ele>2171.53</ele>
        <time>2015-05-24T12:00:17Z</time>
      </trkpt>
      <trkpt lat="45.68382" lon="6.25782">
        <ele>2160.94</ele>
        <time>2015-05-24T12:00:58Z</time>
      </trkpt>
      <trkpt lat="45.68364" lon="6.25785">
        <ele>2162.16</ele>
        <time>2015-05-24T12:01:16Z</time>
      </trkpt>
      <trkpt lat="45.68374" lon="6.25763">
        <ele>2148.53</ele>
        <time>2015-05-24T12:02:04Z</time>
      </trkpt>
      <trkpt lat="45.68357" lon="6.25754">
        <ele>2130.81</ele>
        <time>2015-05-24T12:03:06Z</time>
      </trkpt>
      <trkpt lat="45.68339" lon="6.2576">
        <ele>2128.78</ele>
        <time>2015-05-24T12:03:39Z</time>
      </trkpt>
      <trkpt lat="45.68321" lon="6.25763">
        <ele>2123.93</ele>
        <time>2015-05-24T12:04:07Z</time>
      </trkpt>
      <trkpt lat="45.68333" lon="6.25743">
        <ele>2112.61</ele>
        <time>2015-05-24T12:04:44Z</time>
      </trkpt>
      <trkpt lat="45.68344" lon="6.25722">
        <ele>2109.47</ele>
        <time>2015-05-24T12:05:16Z</time>
      </trkpt>
      <trkpt lat="45.68353" lon="6.257">
        <ele>2107.54</ele>
        <time>2015-05-24T12:06:02Z</time>
      </trkpt>
      <trkpt lat="45.68364" lon="6.25678">
        <ele>2102.1</ele>
        <time>2015-05-24T12:06:32Z</time>
      </trkpt>
      <trkpt lat="45.68376" lon="6.25659">
        <ele>2098.28</ele>
        <time>2015-05-24T12:07:53Z</time>
      </trkpt>
      <trkpt lat="45.6838" lon="6.25633">
        <ele>2085.8</ele>
        <time>2015-05-24T12:08:44Z</time>
      </trkpt>
      <trkpt lat="45.68376" lon="6.25607">
        <ele>2079.66</ele>
        <time>2015-05-24T12:09:22Z</time>
      </trkpt>
      <trkpt lat="45.68358" lon="6.25607">
        <ele>2074.72</ele>
        <time>2015-05-24T12:10:02Z</time>
      </trkpt>
      <trkpt lat="45.68366" lon="6.25583">
        <ele>2064.61</ele>
        <time>2015-05-24T12:10:28Z</time>
      </trkpt>
      <trkpt lat="45.68347" lon="6.25584">
        <ele>2055.44</ele>
        <time>2015-05-24T12:11:15Z</time>
      </trkpt>
      <trkpt lat="45.6833" lon="6.25596">
        <ele>2053.06</ele>
        <time>2015-05-24T12:11:50Z</time>
      </trkpt>
      <trkpt lat="45.6834" lon="6.25574">
        <ele>2044.04</ele>
        <time>2015-05-24T12:12:17Z</time>
      </trkpt>
      <trkpt lat="45.68348" lon="6.2555">
        <ele>2039.41</ele>
        <time>2015-05-24T12:13:06Z</time>
      </trkpt>
      <trkpt lat="45.68357" lon="6.25527">
        <ele>2033.54</ele>
        <time>2015-05-24T12:13:35Z</time>
      </trkpt>
      <trkpt lat="45.68364" lon="6.25503">
        <ele>2026.17</ele>
        <time>2015-05-24T12:14:22Z</time>
      </trkpt>
      <trkpt lat="45.6836" lon="6.25478">
        <ele>2020.05</ele>
        <time>2015-05-24T12:14:45Z</time>
      </trkpt>
      <trkpt lat="45.6836" lon="6.25452">
        <ele>2015.8</ele>
        <time>2015-05-24T12:15:03Z</time>
      </trkpt>
      <trkpt lat="45.68349" lon="6.2543">
        <ele>2010.11</ele>
        <time>2015-05-24T12:15:23Z</time>
      </trkpt>
      <trkpt lat="45.68342" lon="6.25406">
        <ele>2006.06</ele>
        <time>2015-05-24T12:15:48Z</time>
      </trkpt>
      <trkpt lat="45.68341" lon="6.2538">
        <ele>2003.55</ele>
        <time>2015-05-24T12:16:07Z</time>
      </trkpt>
      <trkpt lat="45.6834" lon="6.25354">
        <ele>1998.66</ele>
        <time>2015-05-24T12:16:29Z</time>
      </trkpt>
      <trkpt lat="45.68338" lon="6.25329">
        <ele>1990.84</ele>
        <time>2015-05-24T12:16:55Z</time>
      </trkpt>
      <trkpt lat="45.68339" lon="6.25303">
        <ele>1982.85</ele>
        <time>2015-05-24T12:17:22Z</time>
      </trkpt>
      <trkpt lat="45.68337" lon="6.25276">
        <ele>1984.8</ele>
        <time>2015-05-24T12:17:49Z</time>
      </trkpt>
      <trkpt lat="45.68335" lon="6.25249">
        <ele>1976.85</ele>
        <time>2015-05-24T12:18:09Z</time>
      </trkpt>
      <trkpt lat="45.68332" lon="6.25224">
        <ele>1975.53</ele>
        <time>2015-05-24T12:18:28Z</time>
      </trkpt>
      <trkpt lat="45.68332" lon="6.25198">
        <ele>1974.53</ele>
        <time>2015-05-24T12:18:51Z</time>
      </trkpt>
      <trkpt lat="45.68329" lon="6.25172">
        <ele>1973.24</ele>
        <time>2015-05-24T12:19:31Z</time>
      </trkpt>
      <trkpt lat="45.6833" lon="6.25146">
        <ele>1963.1</ele>
        <time>2015-05-24T12:19:49Z</time>
      </trkpt>
      <trkpt lat="45.68333" lon="6.25119">
        <ele>1958.66</ele>
        <time>2015-05-24T12:20:22Z</time>
      </trkpt>
      <trkpt lat="45.68336" lon="6.25093">
        <ele>1956.54</ele>
        <time>2015-05-24T12:20:37Z</time>
      </trkpt>
      <trkpt lat="45.68337" lon="6.25066">
        <ele>1954.65</ele>
        <time>2015-05-24T12:20:52Z</time>
      </trkpt>
      <trkpt lat="45.68336" lon="6.2504">
        <ele>1950.66</ele>
        <time>2015-05-24T12:21:09Z</time>
      </trkpt>
      <trkpt lat="45.68339" lon="6.25014">
        <ele>1949.29</ele>
        <time>2015-05-24T12:21:24Z</time>
      </trkpt>
      <trkpt lat="45.68346" lon="6.2499">
        <ele>1945.29</ele>
        <time>2015-05-24T12:21:41Z</time>
      </trkpt>
      <trkpt lat="45.68354" lon="6.24967">
        <ele>1943.42</ele>
        <time>2015-05-24T12:22:05Z</time>
      </trkpt>
      <trkpt lat="45.68363" lon="6.24944">
        <ele>1937.05</ele>
        <time>2015-05-24T12:22:32Z</time>
      </trkpt>
      <trkpt lat="45.68372" lon="6.24922">
        <ele>1937.02</ele>
        <time>2015-05-24T12:22:49Z</time>
      </trkpt>
      <trkpt lat="45.6838" lon="6.24898">
        <ele>1936.53</ele>
        <time>2015-05-24T12:23:05Z</time>
      </trkpt>
      <trkpt lat="45.68392" lon="6.24879">
        <ele>1938.14</ele>
        <time>2015-05-24T12:23:28Z</time>
      </trkpt>
      <trkpt lat="45.68403" lon="6.24857">
        <ele>1936.99</ele>
        <time>2015-05-24T12:23:48Z</time>
      </trkpt>
      <trkpt lat="45.68418" lon="6.24842">
        <ele>1938.53</ele>
        <time>2015-05-24T12:24:07Z</time>
      </trkpt>
      <trkpt lat="45.68436" lon="6.24837">
        <ele>1935.84</ele>
        <time>2015-05-24T12:24:31Z</time>
      </trkpt>
      <trkpt lat="45.68453" lon="6.24828">
        <ele>1920.17</ele>
        <time>2015-05-24T12:25:07Z</time>
      </trkpt>
      <trkpt lat="45.68469" lon="6.24817">
        <ele>1919.72</ele>
        <time>2015-05-24T12:26:01Z</time>
      </trkpt>
      <trkpt lat="45.68485" lon="6.24804">
        <ele>1916.58</ele>
        <time>2015-05-24T12:26:26Z</time>
      </trkpt>
      <trkpt lat="45.68496" lon="6.24783">
        <ele>1912.82</ele>
        <time>2015-05-24T12:26:43Z</time>
      </trkpt>
      <trkpt lat="45.68509" lon="6.24766">
        <ele>1910.58</ele>
        <time>2015-05-24T12:27:53Z</time>
      </trkpt>
      <trkpt lat="45.68498" lon="6.24745">
        <ele>1907.84</ele>
        <time>2015-05-24T12:28:53Z</time>
      </trkpt>
      <trkpt lat="45.6848" lon="6.24745">
        <ele>1905.53</ele>
        <time>2015-05-24T12:29:34Z</time>
      </trkpt>
      <trkpt lat="45.68493" lon="6.24726">
        <ele>1895.92</ele>
        <time>2015-05-24T12:29:55Z</time>
      </trkpt>
      <trkpt lat="45.68503" lon="6.24705">
        <ele>1896</ele>
        <time>2015-05-24T12:30:11Z</time>
      </trkpt>
      <trkpt lat="45.68498" lon="6.2468">
        <ele>1878.21</ele>
        <time>2015-05-24T12:31:21Z</time>
      </trkpt>
      <trkpt lat="45.68513" lon="6.24663">
        <ele>1872.48</ele>
        <time>2015-05-24T12:31:43Z</time>
      </trkpt>
      <trkpt lat="45.68496" lon="6.24652">
        <ele>1871.04</ele>
        <time>2015-05-24T12:32:26Z</time>
      </trkpt>
      <trkpt lat="45.68509" lon="6.24632">
        <ele>1867.46</ele>
        <time>2015-05-24T12:33:18Z</time>
      </trkpt>
      <trkpt lat="45.6849" lon="6.24632">
        <ele>1864</ele>
        <time>2015-05-24T12:35:19Z</time>
      </trkpt>
      <trkpt lat="45.68472" lon="6.24636">
        <ele>1863.53</ele>
        <time>2015-05-24T12:35:32Z</time>
      </trkpt>
      <trkpt lat="45.68453" lon="6.2464">
        <ele>1857.4</ele>
        <time>2015-05-24T12:35:51Z</time>
      </trkpt>
      <trkpt lat="45.68435" lon="6.24634">
        <ele>1852.17</ele>
        <time>2015-05-24T12:36:08Z</time>
      </trkpt>
      <trkpt lat="45.68416" lon="6.24626">
        <ele>1847.53</ele>
        <time>2015-05-24T12:36:26Z</time>
      </trkpt>
      <trkpt lat="45.68399" lon="6.24615">
        <ele>1839.9</ele>
        <time>2015-05-24T12:36:48Z</time>
      </trkpt>
      <trkpt lat="45.68383" lon="6.24603">
        <ele>1837.03</ele>
        <time>2015-05-24T12:37:04Z</time>
      </trkpt>
      <trkpt lat="45.68365" lon="6.24598">
        <ele>1834.6</ele>
        <time>2015-05-24T12:37:20Z</time>
      </trkpt>
      <trkpt lat="45.68346" lon="6.24594">
        <ele>1825.66</ele>
        <time>2015-05-24T12:37:40Z</time>
      </trkpt>
      <trkpt lat="45.68328" lon="6.24593">
        <ele>1844.58</ele>
        <time>2015-05-24T12:37:57Z</time>
      </trkpt>
      <trkpt lat="45.6831" lon="6.2459">
        <ele>1817.41</ele>
        <time>2015-05-24T12:38:13Z</time>
      </trkpt>
      <trkpt lat="45.68315" lon="6.24565">
        <ele>1815.03</ele>
        <time>2015-05-24T12:38:33Z</time>
      </trkpt>
      <trkpt lat="45.68331" lon="6.24552">
        <ele>1812.53</ele>
        <time>2015-05-24T12:38:55Z</time>
      </trkpt>
      <trkpt lat="45.68346" lon="6.24538">
        <ele>1811.66</ele>
        <time>2015-05-24T12:39:11Z</time>
      </trkpt>
      <trkpt lat="45.68362" lon="6.24525">
        <ele>1808.91</ele>
        <time>2015-05-24T12:39:25Z</time>
      </trkpt>
      <trkpt lat="45.68377" lon="6.2451">
        <ele>1801.82</ele>
        <time>2015-05-24T12:39:41Z</time>
      </trkpt>
      <trkpt lat="45.68392" lon="6.24494">
        <ele>1797.83</ele>
        <time>2015-05-24T12:39:58Z</time>
      </trkpt>
      <trkpt lat="45.6841" lon="6.24487">
        <ele>1790.72</ele>
        <time>2015-05-24T12:40:18Z</time>
      </trkpt>
      <trkpt lat="45.68426" lon="6.24472">
        <ele>1783.3</ele>
        <time>2015-05-24T12:40:36Z</time>
      </trkpt>
      <trkpt lat="45.68439" lon="6.24453">
        <ele>1778.85</ele>
        <time>2015-05-24T12:40:54Z</time>
      </trkpt>
      <trkpt lat="45.68453" lon="6.24436">
        <ele>1775.27</ele>
        <time>2015-05-24T12:41:09Z</time>
      </trkpt>
      <trkpt lat="45.68467" lon="6.2442">
        <ele>1773.91</ele>
        <time>2015-05-24T12:41:27Z</time>
      </trkpt>
      <trkpt lat="45.68485" lon="6.24411">
        <ele>1770.54</ele>
        <time>2015-05-24T12:41:42Z</time>
      </trkpt>
      <trkpt lat="45.68492" lon="6.24387">
        <ele>1763.69</ele>
        <time>2015-05-24T12:42:15Z</time>
      </trkpt>
      <trkpt lat="45.68508" lon="6.24375">
        <ele>1759.36</ele>
        <time>2015-05-24T12:42:35Z</time>
      </trkpt>
      <trkpt lat="45.68515" lon="6.2435">
        <ele>1752.92</ele>
        <time>2015-05-24T12:42:53Z</time>
      </trkpt>
      <trkpt lat="45.68522" lon="6.24325">
        <ele>1749.6</ele>
        <time>2015-05-24T12:43:08Z</time>
      </trkpt>
      <trkpt lat="45.68531" lon="6.24301">
        <ele>1746.72</ele>
        <time>2015-05-24T12:43:23Z</time>
      </trkpt>
      <trkpt lat="45.68541" lon="6.24279">
        <ele>1741.53</ele>
        <time>2015-05-24T12:43:45Z</time>
      </trkpt>
      <trkpt lat="45.68541" lon="6.24253">
        <ele>1741.52</ele>
        <time>2015-05-24T12:43:59Z</time>
      </trkpt>
      <trkpt lat="45.68535" lon="6.24228">
        <ele>1743.02</ele>
        <time>2015-05-24T12:44:15Z</time>
      </trkpt>
      <trkpt lat="45.68527" lon="6.24203">
        <ele>1747.2</ele>
        <time>2015-05-24T12:44:29Z</time>
      </trkpt>
      <trkpt lat="45.68522" lon="6.24178">
        <ele>1751.78</ele>
        <time>2015-05-24T12:44:44Z</time>
      </trkpt>
      <trkpt lat="45.68514" lon="6.24154">
        <ele>1750.46</ele>
        <time>2015-05-24T12:45:04Z</time>
      </trkpt>
      <trkpt lat="45.68515" lon="6.24128">
        <ele>1750.52</ele>
        <time>2015-05-24T12:45:24Z</time>
      </trkpt>
      <trkpt lat="45.68519" lon="6.24102">
        <ele>1741.72</ele>
        <time>2015-05-24T12:45:54Z</time>
      </trkpt>
      <trkpt lat="45.68516" lon="6.24076">
        <ele>1742.67</ele>
        <time>2015-05-24T12:46:14Z</time>
      </trkpt>
      <trkpt lat="45.6851" lon="6.24051">
        <ele>1746.22</ele>
        <time>2015-05-24T12:46:30Z</time>
      </trkpt>
      <trkpt lat="45.68509" lon="6.24024">
        <ele>1749.4</ele>
        <time>2015-05-24T12:46:51Z</time>
      </trkpt>
      <trkpt lat="45.68514" lon="6.23998">
        <ele>1747.39</ele>
        <time>2015-05-24T12:47:07Z</time>
      </trkpt>
      <trkpt lat="45.68519" lon="6.23973">
        <ele>1749.5</ele>
        <time>2015-05-24T12:47:22Z</time>
      </trkpt>
      <trkpt lat="45.68501" lon="6.23967">
        <ele>1740.86</ele>
        <time>2015-05-24T12:51:52Z</time>
      </trkpt>
      <trkpt lat="45.68484" lon="6.23979">
        <ele>1732.11</ele>
        <time>2015-05-24T12:52:11Z</time>
      </trkpt>
      <trkpt lat="45.68468" lon="6.2399">
        <ele>1723.83</ele>
        <time>2015-05-24T12:52:29Z</time>
      </trkpt>
      <trkpt lat="45.68455" lon="6.24009">
        <ele>1716.13</ele>
        <time>2015-05-24T12:52:46Z</time>
      </trkpt>
      <trkpt lat="45.68441" lon="6.24027">
        <ele>1708.82</ele>
        <time>2015-05-24T12:53:03Z</time>
      </trkpt>
      <trkpt lat="45.68428" lon="6.24045">
        <ele>1703.69</ele>
        <time>2015-05-24T12:53:18Z</time>
      </trkpt>
      <trkpt lat="45.68413" lon="6.24063">
        <ele>1701.54</ele>
        <time>2015-05-24T12:53:38Z</time>
      </trkpt>
      <trkpt lat="45.68397" lon="6.24076">
        <ele>1700.59</ele>
        <time>2015-05-24T12:53:52Z</time>
      </trkpt>
      <trkpt lat="45.68379" lon="6.24081">
        <ele>1697.66</ele>
        <time>2015-05-24T12:54:13Z</time>
      </trkpt>
      <trkpt lat="45.68361" lon="6.24077">
        <ele>1693.82</ele>
        <time>2015-05-24T12:54:27Z</time>
      </trkpt>
      <trkpt lat="45.68343" lon="6.24071">
        <ele>1688.19</ele>
        <time>2015-05-24T12:54:42Z</time>
      </trkpt>
      <trkpt lat="45.68326" lon="6.24063">
        <ele>1684.45</ele>
        <time>2015-05-24T12:54:57Z</time>
      </trkpt>
      <trkpt lat="45.68308" lon="6.24058">
        <ele>1679.36</ele>
        <time>2015-05-24T12:55:14Z</time>
      </trkpt>
      <trkpt lat="45.6829" lon="6.24052">
        <ele>1676.61</ele>
        <time>2015-05-24T12:55:28Z</time>
      </trkpt>
      <trkpt lat="45.68273" lon="6.24042">
        <ele>1674.84</ele>
        <time>2015-05-24T12:55:46Z</time>
      </trkpt>
      <trkpt lat="45.68254" lon="6.24042">
        <ele>1671.06</ele>
        <time>2015-05-24T12:56:07Z</time>
      </trkpt>
      <trkpt lat="45.68236" lon="6.24044">
        <ele>1670.68</ele>
        <time>2015-05-24T12:56:41Z</time>
      </trkpt>
      <trkpt lat="45.68219" lon="6.24033">
        <ele>1666.29</ele>
        <time>2015-05-24T12:57:03Z</time>
      </trkpt>
      <trkpt lat="45.68202" lon="6.24024">
        <ele>1661.6</ele>
        <time>2015-05-24T12:57:27Z</time>
      </trkpt>
      <trkpt lat="45.68188" lon="6.24007">
        <ele>1658.02</ele>
        <time>2015-05-24T12:57:48Z</time>
      </trkpt>
      <trkpt lat="45.68171" lon="6.23997">
        <ele>1655.66</ele>
        <time>2015-05-24T12:58:07Z</time>
      </trkpt>
      <trkpt lat="45.68155" lon="6.23986">
        <ele>1651.85</ele>
        <time>2015-05-24T12:58:24Z</time>
      </trkpt>
      <trkpt lat="45.68138" lon="6.23975">
        <ele>1648.11</ele>
        <time>2015-05-24T12:58:54Z</time>
      </trkpt>
      <trkpt lat="45.68119" lon="6.23972">
        <ele>1645.13</ele>
        <time>2015-05-24T12:59:12Z</time>
      </trkpt>
      <trkpt lat="45.68101" lon="6.23964">
        <ele>1641.35</ele>
        <time>2015-05-24T12:59:28Z</time>
      </trkpt>
      <trkpt lat="45.68083" lon="6.23954">
        <ele>1637.1</ele>
        <time>2015-05-24T12:59:44Z</time>
      </trkpt>
      <trkpt lat="45.68065" lon="6.23946">
        <ele>1629.85</ele>
        <time>2015-05-24T13:00:00Z</time>
      </trkpt>
      <trkpt lat="45.68047" lon="6.23946">
        <ele>1626.17</ele>
        <time>2015-05-24T13:00:17Z</time>
      </trkpt>
      <trkpt lat="45.68028" lon="6.23945">
        <ele>1623.6</ele>
        <time>2015-05-24T13:00:42Z</time>
      </trkpt>
      <trkpt lat="45.6801" lon="6.23937">
        <ele>1617.67</ele>
        <time>2015-05-24T13:01:09Z</time>
      </trkpt>
      <trkpt lat="45.67993" lon="6.23927">
        <ele>1613.78</ele>
        <time>2015-05-24T13:01:29Z</time>
      </trkpt>
      <trkpt lat="45.67974" lon="6.23925">
        <ele>1610.41</ele>
        <time>2015-05-24T13:01:50Z</time>
      </trkpt>
      <trkpt lat="45.67956" lon="6.23927">
        <ele>1605.66</ele>
        <time>2015-05-24T13:02:10Z</time>
      </trkpt>
      <trkpt lat="45.67941" lon="6.23911">
        <ele>1602.67</ele>
        <time>2015-05-24T13:02:26Z</time>
      </trkpt>
      <trkpt lat="45.67925" lon="6.23921">
        <ele>1599.52</ele>
        <time>2015-05-24T13:02:46Z</time>
      </trkpt>
      <trkpt lat="45.6791" lon="6.23903">
        <ele>1597.23</ele>
        <time>2015-05-24T13:03:26Z</time>
      </trkpt>
      <trkpt lat="45.67899" lon="6.23882">
        <ele>1594.57</ele>
        <time>2015-05-24T13:03:42Z</time>
      </trkpt>
      <trkpt lat="45.67881" lon="6.23879">
        <ele>1594.94</ele>
        <time>2015-05-24T13:03:58Z</time>
      </trkpt>
      <trkpt lat="45.67862" lon="6.23884">
        <ele>1595.22</ele>
        <time>2015-05-24T13:04:14Z</time>
      </trkpt>
      <trkpt lat="45.67844" lon="6.2388">
        <ele>1590.85</ele>
        <time>2015-05-24T13:04:30Z</time>
      </trkpt>
      <trkpt lat="45.67827" lon="6.23892">
        <ele>1586.57</ele>
        <time>2015-05-24T13:04:48Z</time>
      </trkpt>
      <trkpt lat="45.67813" lon="6.23907">
        <ele>1582.56</ele>
        <time>2015-05-24T13:05:06Z</time>
      </trkpt>
      <trkpt lat="45.67798" lon="6.23924">
        <ele>1579.29</ele>
        <time>2015-05-24T13:05:23Z</time>
      </trkpt>
      <trkpt lat="45.67781" lon="6.23934">
        <ele>1575.16</ele>
        <time>2015-05-24T13:05:39Z</time>
      </trkpt>
      <trkpt lat="45.67761" lon="6.23936">
        <ele>1572.58</ele>
        <time>2015-05-24T13:05:54Z</time>
      </trkpt>
      <trkpt lat="45.67743" lon="6.2394">
        <ele>1572.48</ele>
        <time>2015-05-24T13:06:09Z</time>
      </trkpt>
      <trkpt lat="45.67724" lon="6.23941">
        <ele>1569.05</ele>
        <time>2015-05-24T13:06:25Z</time>
      </trkpt>
      <trkpt lat="45.67706" lon="6.23944">
        <ele>1564.6</ele>
        <time>2015-05-24T13:06:41Z</time>
      </trkpt>
      <trkpt lat="45.67688" lon="6.23951">
        <ele>1560.57</ele>
        <time>2015-05-24T13:06:57Z</time>
      </trkpt>
      <trkpt lat="45.6767" lon="6.23953">
        <ele>1555.81</ele>
        <time>2015-05-24T13:07:14Z</time>
      </trkpt>
      <trkpt lat="45.67654" lon="6.23944">
        <ele>1551.66</ele>
        <time>2015-05-24T13:07:29Z</time>
      </trkpt>
      <trkpt lat="45.67635" lon="6.23946">
        <ele>1547.97</ele>
        <time>2015-05-24T13:07:46Z</time>
      </trkpt>
      <trkpt lat="45.67615" lon="6.23942">
        <ele>1544.55</ele>
        <time>2015-05-24T13:08:03Z</time>
      </trkpt>
      <trkpt lat="45.67597" lon="6.23942">
        <ele>1540.56</ele>
        <time>2015-05-24T13:08:19Z</time>
      </trkpt>
      <trkpt lat="45.67579" lon="6.23943">
        <ele>1536.58</ele>
        <time>2015-05-24T13:08:35Z</time>
      </trkpt>
      <trkpt lat="45.6756" lon="6.23943">
        <ele>1534.16</ele>
        <time>2015-05-24T13:08:51Z</time>
      </trkpt>
      <trkpt lat="45.67542" lon="6.23942">
        <ele>1532.48</ele>
        <time>2015-05-24T13:09:07Z</time>
      </trkpt>
      <trkpt lat="45.67524" lon="6.23932">
        <ele>1530.29</ele>
        <time>2015-05-24T13:09:23Z</time>
      </trkpt>
      <trkpt lat="45.67508" lon="6.23918">
        <ele>1528.53</ele>
        <time>2015-05-24T13:09:38Z</time>
      </trkpt>
      <trkpt lat="45.67496" lon="6.23897">
        <ele>1524.66</ele>
        <time>2015-05-24T13:09:53Z</time>
      </trkpt>
      <trkpt lat="45.67477" lon="6.23894">
        <ele>1525.59</ele>
        <time>2015-05-24T13:10:09Z</time>
      </trkpt>
      <trkpt lat="45.67458" lon="6.23892">
        <ele>1523.07</ele>
        <time>2015-05-24T13:10:25Z</time>
      </trkpt>
      <trkpt lat="45.67439" lon="6.23893">
        <ele>1520.84</ele>
        <time>2015-05-24T13:10:42Z</time>
      </trkpt>
      <trkpt lat="45.6742" lon="6.23894">
        <ele>1517.58</ele>
        <time>2015-05-24T13:10:59Z</time>
      </trkpt>
      <trkpt lat="45.67401" lon="6.23891">
        <ele>1514.66</ele>
        <time>2015-05-24T13:11:15Z</time>
      </trkpt>
      <trkpt lat="45.67384" lon="6.23882">
        <ele>1511.62</ele>
        <time>2015-05-24T13:11:31Z</time>
      </trkpt>
      <trkpt lat="45.67366" lon="6.23874">
        <ele>1509.54</ele>
        <time>2015-05-24T13:11:46Z</time>
      </trkpt>
      <trkpt lat="45.67349" lon="6.23862">
        <ele>1508.8</ele>
        <time>2015-05-24T13:12:02Z</time>
      </trkpt>
      <trkpt lat="45.67334" lon="6.23847">
        <ele>1510.71</ele>
        <time>2015-05-24T13:12:17Z</time>
      </trkpt>
      <trkpt lat="45.67316" lon="6.23844">
        <ele>1509.54</ele>
        <time>2015-05-24T13:12:34Z</time>
      </trkpt>
      <trkpt lat="45.67298" lon="6.23847">
        <ele>1505.9</ele>
        <time>2015-05-24T13:12:50Z</time>
      </trkpt>
      <trkpt lat="45.6728" lon="6.23851">
        <ele>1502.35</ele>
        <time>2015-05-24T13:13:05Z</time>
      </trkpt>
      <trkpt lat="45.67261" lon="6.23854">
        <ele>1500.55</ele>
        <time>2015-05-24T13:13:21Z</time>
      </trkpt>
      <trkpt lat="45.67242" lon="6.23856">
        <ele>1497.07</ele>
        <time>2015-05-24T13:13:37Z</time>
      </trkpt>
      <trkpt lat="45.67224" lon="6.23855">
        <ele>1494.56</ele>
        <time>2015-05-24T13:13:52Z</time>
      </trkpt>
      <trkpt lat="45.67206" lon="6.23857">
        <ele>1491.87</ele>
        <time>2015-05-24T13:14:07Z</time>
      </trkpt>
      <trkpt lat="45.67188" lon="6.23866">
        <ele>1491.1</ele>
        <time>2015-05-24T13:14:23Z</time>
      </trkpt>
      <trkpt lat="45.6717" lon="6.23872">
        <ele>1489.55</ele>
        <time>2015-05-24T13:14:37Z</time>
      </trkpt>
      <trkpt lat="45.67151" lon="6.23875">
        <ele>1490.31</ele>
        <time>2015-05-24T13:14:53Z</time>
      </trkpt>
      <trkpt lat="45.67133" lon="6.2388">
        <ele>1489.54</ele>
        <time>2015-05-24T13:15:08Z</time>
      </trkpt>
      <trkpt lat="45.67115" lon="6.23888">
        <ele>1488.8</ele>
        <time>2015-05-24T13:15:23Z</time>
      </trkpt>
      <trkpt lat="45.67102" lon="6.23906">
        <ele>1486.6</ele>
        <time>2015-05-24T13:15:38Z</time>
      </trkpt>
      <trkpt lat="45.67092" lon="6.23929">
        <ele>1485.5</ele>
        <time>2015-05-24T13:15:53Z</time>
      </trkpt>
      <trkpt lat="45.67084" lon="6.23954">
        <ele>1486.53</ele>
        <time>2015-05-24T13:16:20Z</time>
      </trkpt>
      <trkpt lat="45.67079" lon="6.23978">
        <ele>1485.53</ele>
        <time>2015-05-24T13:16:35Z</time>
      </trkpt>
      <trkpt lat="45.67082" lon="6.24005">
        <ele>1485.03</ele>
        <time>2015-05-24T13:16:50Z</time>
      </trkpt>
      <trkpt lat="45.67077" lon="6.24031">
        <ele>1484.53</ele>
        <time>2015-05-24T13:17:05Z</time>
      </trkpt>
      <trkpt lat="45.67065" lon="6.24051">
        <ele>1483.54</ele>
        <time>2015-05-24T13:17:21Z</time>
      </trkpt>
      <trkpt lat="45.67056" lon="6.24073">
        <ele>1479.07</ele>
        <time>2015-05-24T13:17:39Z</time>
      </trkpt>
      <trkpt lat="45.67044" lon="6.24095">
        <ele>1476.56</ele>
        <time>2015-05-24T13:17:56Z</time>
      </trkpt>
      <trkpt lat="45.67034" lon="6.24116">
        <ele>1474.01</ele>
        <time>2015-05-24T13:18:17Z</time>
      </trkpt>
      <trkpt lat="45.67016" lon="6.24111">
        <ele>1466.75</ele>
        <time>2015-05-24T13:18:37Z</time>
      </trkpt>
      <trkpt lat="45.67022" lon="6.24137">
        <ele>1465.53</ele>
        <time>2015-05-24T13:19:00Z</time>
      </trkpt>
      <trkpt lat="45.67004" lon="6.24134">
        <ele>1458.81</ele>
        <time>2015-05-24T13:20:11Z</time>
      </trkpt>
      <trkpt lat="45.6699" lon="6.24119">
        <ele>1454.5</ele>
        <time>2015-05-24T13:20:40Z</time>
      </trkpt>
      <trkpt lat="45.66973" lon="6.2411">
        <ele>1450.8</ele>
        <time>2015-05-24T13:20:57Z</time>
      </trkpt>
      <trkpt lat="45.66957" lon="6.24097">
        <ele>1447.54</ele>
        <time>2015-05-24T13:21:13Z</time>
      </trkpt>
      <trkpt lat="45.66943" lon="6.24079">
        <ele>1442.1</ele>
        <time>2015-05-24T13:21:29Z</time>
      </trkpt>
      <trkpt lat="45.6693" lon="6.24062">
        <ele>1441.75</ele>
        <time>2015-05-24T13:21:44Z</time>
      </trkpt>
      <trkpt lat="45.66915" lon="6.24048">
        <ele>1441.5</ele>
        <time>2015-05-24T13:21:59Z</time>
      </trkpt>
      <trkpt lat="45.66897" lon="6.24057">
        <ele>1437.54</ele>
        <time>2015-05-24T13:22:16Z</time>
      </trkpt>
      <trkpt lat="45.66883" lon="6.24075">
        <ele>1435.78</ele>
        <time>2015-05-24T13:22:32Z</time>
      </trkpt>
      <trkpt lat="45.66869" lon="6.24094">
        <ele>1434.61</ele>
        <time>2015-05-24T13:22:53Z</time>
      </trkpt>
      <trkpt lat="45.6685" lon="6.241">
        <ele>1430.55</ele>
        <time>2015-05-24T13:23:09Z</time>
      </trkpt>
      <trkpt lat="45.66838" lon="6.24081">
        <ele>1426.55</ele>
        <time>2015-05-24T13:23:28Z</time>
      </trkpt>
      <trkpt lat="45.66823" lon="6.24064">
        <ele>1421.78</ele>
        <time>2015-05-24T13:23:46Z</time>
      </trkpt>
      <trkpt lat="45.6681" lon="6.24046">
        <ele>1421.54</ele>
        <time>2015-05-24T13:24:00Z</time>
      </trkpt>
      <trkpt lat="45.66798" lon="6.24068">
        <ele>1420.55</ele>
        <time>2015-05-24T13:24:16Z</time>
      </trkpt>
      <trkpt lat="45.6679" lon="6.24092">
        <ele>1419.1</ele>
        <time>2015-05-24T13:24:31Z</time>
      </trkpt>
      <trkpt lat="45.66784" lon="6.24118">
        <ele>1419.12</ele>
        <time>2015-05-24T13:24:47Z</time>
      </trkpt>
      <trkpt lat="45.66768" lon="6.24131">
        <ele>1411.93</ele>
        <time>2015-05-24T13:25:03Z</time>
      </trkpt>
      <trkpt lat="45.66755" lon="6.2415">
        <ele>1413.38</ele>
        <time>2015-05-24T13:25:18Z</time>
      </trkpt>
      <trkpt lat="45.66743" lon="6.24169">
        <ele>1410.09</ele>
        <time>2015-05-24T13:25:33Z</time>
      </trkpt>
      <trkpt lat="45.66726" lon="6.24179">
        <ele>1407.3</ele>
        <time>2015-05-24T13:25:48Z</time>
      </trkpt>
      <trkpt lat="45.66707" lon="6.24185">
        <ele>1404.66</ele>
        <time>2015-05-24T13:26:04Z</time>
      </trkpt>
      <trkpt lat="45.6669" lon="6.24193">
        <ele>1404.71</ele>
        <time>2015-05-24T13:26:18Z</time>
      </trkpt>
      <trkpt lat="45.66672" lon="6.24197">
        <ele>1402.03</ele>
        <time>2015-05-24T13:26:37Z</time>
      </trkpt>
      <trkpt lat="45.66657" lon="6.24216">
        <ele>1401.91</ele>
        <time>2015-05-24T13:26:53Z</time>
      </trkpt>
      <trkpt lat="45.66641" lon="6.24231">
        <ele>1398.66</ele>
        <time>2015-05-24T13:27:11Z</time>
      </trkpt>
      <trkpt lat="45.66623" lon="6.24225">
        <ele>1391.78</ele>
        <time>2015-05-24T13:27:30Z</time>
      </trkpt>
      <trkpt lat="45.66608" lon="6.24212">
        <ele>1388.78</ele>
        <time>2015-05-24T13:27:46Z</time>
      </trkpt>
      <trkpt lat="45.66591" lon="6.24204">
        <ele>1383.51</ele>
        <time>2015-05-24T13:28:01Z</time>
      </trkpt>
      <trkpt lat="45.66572" lon="6.24203">
        <ele>1380.51</ele>
        <time>2015-05-24T13:28:18Z</time>
      </trkpt>
      <trkpt lat="45.66553" lon="6.24201">
        <ele>1382.11</ele>
        <time>2015-05-24T13:29:27Z</time>
      </trkpt>
      <trkpt lat="45.66535" lon="6.242">
        <ele>1375.77</ele>
        <time>2015-05-24T13:29:45Z</time>
      </trkpt>
      <trkpt lat="45.66517" lon="6.24197">
        <ele>1373.44</ele>
        <time>2015-05-24T13:30:10Z</time>
      </trkpt>
      <trkpt lat="45.66499" lon="6.2419">
        <ele>1367.82</ele>
        <time>2015-05-24T13:30:36Z</time>
      </trkpt>
      <trkpt lat="45.66481" lon="6.24197">
        <ele>1365.84</ele>
        <time>2015-05-24T13:30:51Z</time>
      </trkpt>
      <trkpt lat="45.66463" lon="6.24197">
        <ele>1362.6</ele>
        <time>2015-05-24T13:31:07Z</time>
      </trkpt>
      <trkpt lat="45.66445" lon="6.24195">
        <ele>1360.78</ele>
        <time>2015-05-24T13:31:22Z</time>
      </trkpt>
      <trkpt lat="45.66428" lon="6.24203">
        <ele>1354.57</ele>
        <time>2015-05-24T13:31:39Z</time>
      </trkpt>
      <trkpt lat="45.66409" lon="6.24204">
        <ele>1349.81</ele>
        <time>2015-05-24T13:31:55Z</time>
      </trkpt>
      <trkpt lat="45.66391" lon="6.24209">
        <ele>1348.52</ele>
        <time>2015-05-24T13:32:16Z</time>
      </trkpt>
      <trkpt lat="45.66373" lon="6.24217">
        <ele>1343.67</ele>
        <time>2015-05-24T13:32:32Z</time>
      </trkpt>
      <trkpt lat="45.66357" lon="6.2423">
        <ele>1338.69</ele>
        <time>2015-05-24T13:32:50Z</time>
      </trkpt>
      <trkpt lat="45.66339" lon="6.24239">
        <ele>1336.6</ele>
        <time>2015-05-24T13:33:19Z</time>
      </trkpt>
      <trkpt lat="45.66321" lon="6.24242">
        <ele>1333.74</ele>
        <time>2015-05-24T13:33:34Z</time>
      </trkpt>
      <trkpt lat="45.66302" lon="6.24245">
        <ele>1330.31</ele>
        <time>2015-05-24T13:33:49Z</time>
      </trkpt>
      <trkpt lat="45.66283" lon="6.24244">
        <ele>1328.14</ele>
        <time>2015-05-24T13:34:04Z</time>
      </trkpt>
      <trkpt lat="45.66265" lon="6.24246">
        <ele>1325.54</ele>
        <time>2015-05-24T13:34:19Z</time>
      </trkpt>
      <trkpt lat="45.66246" lon="6.24244">
        <ele>1322.8</ele>
        <time>2015-05-24T13:34:34Z</time>
      </trkpt>
      <trkpt lat="45.66228" lon="6.24238">
        <ele>1322.98</ele>
        <time>2015-05-24T13:34:49Z</time>
      </trkpt>
      <trkpt lat="45.6621" lon="6.24231">
        <ele>1319.06</ele>
        <time>2015-05-24T13:35:04Z</time>
      </trkpt>
      <trkpt lat="45.66193" lon="6.24222">
        <ele>1321.12</ele>
        <time>2015-05-24T13:35:18Z</time>
      </trkpt>
      <trkpt lat="45.66176" lon="6.24212">
        <ele>1312.39</ele>
        <time>2015-05-24T13:35:35Z</time>
      </trkpt>
      <trkpt lat="45.66158" lon="6.24207">
        <ele>1312.44</ele>
        <time>2015-05-24T13:35:50Z</time>
      </trkpt>
      <trkpt lat="45.6614" lon="6.24199">
        <ele>1311.65</ele>
        <time>2015-05-24T13:36:14Z</time>
      </trkpt>
      <trkpt lat="45.66122" lon="6.24192">
        <ele>1309.59</ele>
        <time>2015-05-24T13:36:29Z</time>
      </trkpt>
      <trkpt lat="45.66105" lon="6.24183">
        <ele>1307.52</ele>
        <time>2015-05-24T13:36:44Z</time>
      </trkpt>
      <trkpt lat="45.66087" lon="6.24175">
        <ele>1306.08</ele>
        <time>2015-05-24T13:37:02Z</time>
      </trkpt>
      <trkpt lat="45.66069" lon="6.24166">
        <ele>1308.34</ele>
        <time>2015-05-24T13:37:18Z</time>
      </trkpt>
      <trkpt lat="45.66052" lon="6.24161">
        <ele>1305.88</ele>
        <time>2015-05-24T13:37:32Z</time>
      </trkpt>
      <trkpt lat="45.66034" lon="6.24155">
        <ele>1304.82</ele>
        <time>2015-05-24T13:37:47Z</time>
      </trkpt>
      <trkpt lat="45.66018" lon="6.24144">
        <ele>1303.16</ele>
        <time>2015-05-24T13:38:03Z</time>
      </trkpt>
      <trkpt lat="45.66" lon="6.24137">
        <ele>1305.01</ele>
        <time>2015-05-24T13:38:18Z</time>
      </trkpt>
      <trkpt lat="45.65983" lon="6.24127">
        <ele>1307.27</ele>
        <time>2015-05-24T13:38:34Z</time>
      </trkpt>
      <trkpt lat="45.65966" lon="6.24114">
        <ele>1306.21</ele>
        <time>2015-05-24T13:38:49Z</time>
      </trkpt>
      <trkpt lat="45.65951" lon="6.24099">
        <ele>1299.91</ele>
        <time>2015-05-24T13:39:04Z</time>
      </trkpt>
      <trkpt lat="45.65934" lon="6.24084">
        <ele>1300.03</ele>
        <time>2015-05-24T13:39:17Z</time>
      </trkpt>
      <trkpt lat="45.65917" lon="6.24072">
        <ele>1302.06</ele>
        <time>2015-05-24T13:39:34Z</time>
      </trkpt>
      <trkpt lat="45.65901" lon="6.2406">
        <ele>1302.28</ele>
        <time>2015-05-24T13:39:50Z</time>
      </trkpt>
      <trkpt lat="45.65883" lon="6.24064">
        <ele>1306.73</ele>
        <time>2015-05-24T13:40:10Z</time>
      </trkpt>
      <trkpt lat="45.65863" lon="6.2406">
        <ele>1299.02</ele>
        <time>2015-05-24T13:40:26Z</time>
      </trkpt>
      <trkpt lat="45.65844" lon="6.24059">
        <ele>1297.51</ele>
        <time>2015-05-24T13:40:46Z</time>
      </trkpt>
      <trkpt lat="45.65826" lon="6.24062">
        <ele>1294.19</ele>
        <time>2015-05-24T13:40:57Z</time>
      </trkpt>
      <trkpt lat="45.65807" lon="6.24062">
        <ele>1289.28</ele>
        <time>2015-05-24T13:41:15Z</time>
      </trkpt>
      <trkpt lat="45.65789" lon="6.24063">
        <ele>1283.2</ele>
        <time>2015-05-24T13:41:32Z</time>
      </trkpt>
      <trkpt lat="45.6577" lon="6.24064">
        <ele>1272.01</ele>
        <time>2015-05-24T13:41:54Z</time>
      </trkpt>
      <trkpt lat="45.65752" lon="6.24069">
        <ele>1275.23</ele>
        <time>2015-05-24T13:42:10Z</time>
      </trkpt>
      <trkpt lat="45.65734" lon="6.2407">
        <ele>1274.46</ele>
        <time>2015-05-24T13:42:25Z</time>
      </trkpt>
      <trkpt lat="45.65715" lon="6.24061">
        <ele>1263.86</ele>
        <time>2015-05-24T13:42:42Z</time>
      </trkpt>
      <trkpt lat="45.65697" lon="6.24058">
        <ele>1264.76</ele>
        <time>2015-05-24T13:42:57Z</time>
      </trkpt>
      <trkpt lat="45.65679" lon="6.2405">
        <ele>1262.07</ele>
        <time>2015-05-24T13:43:17Z</time>
      </trkpt>
      <trkpt lat="45.6566" lon="6.24047">
        <ele>1265.17</ele>
        <time>2015-05-24T13:43:34Z</time>
      </trkpt>
      <trkpt lat="45.65642" lon="6.24043">
        <ele>1255.52</ele>
        <time>2015-05-24T13:43:48Z</time>
      </trkpt>
      <trkpt lat="45.65624" lon="6.24039">
        <ele>1248.25</ele>
        <time>2015-05-24T13:44:05Z</time>
      </trkpt>
      <trkpt lat="45.65605" lon="6.24035">
        <ele>1244.23</ele>
        <time>2015-05-24T13:44:22Z</time>
      </trkpt>
      <trkpt lat="45.65587" lon="6.24033">
        <ele>1238.64</ele>
        <time>2015-05-24T13:44:36Z</time>
      </trkpt>
      <trkpt lat="45.6557" lon="6.24043">
        <ele>1236.42</ele>
        <time>2015-05-24T13:44:51Z</time>
      </trkpt>
      <trkpt lat="45.65552" lon="6.2405">
        <ele>1232.26</ele>
        <time>2015-05-24T13:45:18Z</time>
      </trkpt>
      <trkpt lat="45.65537" lon="6.24065">
        <ele>1232.04</ele>
        <time>2015-05-24T13:45:31Z</time>
      </trkpt>
      <trkpt lat="45.65519" lon="6.2407">
        <ele>1218.77</ele>
        <time>2015-05-24T13:45:47Z</time>
      </trkpt>
      <trkpt lat="45.65502" lon="6.2408">
        <ele>1218.87</ele>
        <time>2015-05-24T13:46:04Z</time>
      </trkpt>
      <trkpt lat="45.65486" lon="6.24092">
        <ele>1210.58</ele>
        <time>2015-05-24T13:46:31Z</time>
      </trkpt>
      <trkpt lat="45.65468" lon="6.24098">
        <ele>1207.34</ele>
        <time>2015-05-24T13:47:23Z</time>
      </trkpt>
      <trkpt lat="45.6545" lon="6.24101">
        <ele>1200.67</ele>
        <time>2015-05-24T13:47:55Z</time>
      </trkpt>
      <trkpt lat="45.65431" lon="6.24096">
        <ele>1200.32</ele>
        <time>2015-05-24T13:48:15Z</time>
      </trkpt>
      <trkpt lat="45.65414" lon="6.2409">
        <ele>1193.13</ele>
        <time>2015-05-24T13:48:39Z</time>
      </trkpt>
      <trkpt lat="45.65396" lon="6.24091">
        <ele>1186.47</ele>
        <time>2015-05-24T13:48:52Z</time>
      </trkpt>
      <trkpt lat="45.65379" lon="6.2408">
        <ele>1180.07</ele>
        <time>2015-05-24T13:49:14Z</time>
      </trkpt>
      <trkpt lat="45.6536" lon="6.24073">
        <ele>1178.57</ele>
        <time>2015-05-24T13:49:38Z</time>
      </trkpt>
      <trkpt lat="45.65342" lon="6.24078">
        <ele>1177.79</ele>
        <time>2015-05-24T13:49:55Z</time>
      </trkpt>
      <trkpt lat="45.65323" lon="6.24072">
        <ele>1171.56</ele>
        <time>2015-05-24T13:50:12Z</time>
      </trkpt>
      <trkpt lat="45.65305" lon="6.24076">
        <ele>1163.07</ele>
        <time>2015-05-24T13:50:27Z</time>
      </trkpt>
      <trkpt lat="45.65286" lon="6.24079">
        <ele>1155.49</ele>
        <time>2015-05-24T13:50:43Z</time>
      </trkpt>
      <trkpt lat="45.65267" lon="6.24078">
        <ele>1145.32</ele>
        <time>2015-05-24T13:51:21Z</time>
      </trkpt>
      <trkpt lat="45.6525" lon="6.24087">
        <ele>1136.12</ele>
        <time>2015-05-24T13:51:38Z</time>
      </trkpt>
      <trkpt lat="45.65234" lon="6.24101">
        <ele>1136.62</ele>
        <time>2015-05-24T13:51:56Z</time>
      </trkpt>
      <trkpt lat="45.65218" lon="6.24114">
        <ele>1139.04</ele>
        <time>2015-05-24T13:52:12Z</time>
      </trkpt>
      <trkpt lat="45.65199" lon="6.24122">
        <ele>1140.42</ele>
        <time>2015-05-24T13:52:27Z</time>
      </trkpt>
      <trkpt lat="45.65184" lon="6.24135">
        <ele>1137.88</ele>
        <time>2015-05-24T13:52:41Z</time>
      </trkpt>
      <trkpt lat="45.65166" lon="6.24127">
        <ele>1128.91</ele>
        <time>2015-05-24T13:52:59Z</time>
      </trkpt>
      <trkpt lat="45.65149" lon="6.24119">
        <ele>1130</ele>
        <time>2015-05-24T13:53:15Z</time>
      </trkpt>
      <trkpt lat="45.6513" lon="6.24114">
        <ele>1134.8</ele>
        <time>2015-05-24T13:53:26Z</time>
      </trkpt>
      <trkpt lat="45.65114" lon="6.24125">
        <ele>1122.19</ele>
        <time>2015-05-24T13:53:45Z</time>
      </trkpt>
      <trkpt lat="45.65095" lon="6.24119">
        <ele>1126.78</ele>
        <time>2015-05-24T13:54:09Z</time>
      </trkpt>
      <trkpt lat="45.65078" lon="6.2411">
        <ele>1130.34</ele>
        <time>2015-05-24T13:54:25Z</time>
      </trkpt>
      <trkpt lat="45.65064" lon="6.24091">
        <ele>1128.63</ele>
        <time>2015-05-24T13:54:55Z</time>
      </trkpt>
      <trkpt lat="45.65046" lon="6.24082">
        <ele>1134.62</ele>
        <time>2015-05-24T13:55:09Z</time>
      </trkpt>
      <trkpt lat="45.65026" lon="6.24084">
        <ele>1131.02</ele>
        <time>2015-05-24T13:55:39Z</time>
      </trkpt>
      <trkpt lat="45.65012" lon="6.24101">
        <ele>1129.06</ele>
        <time>2015-05-24T13:55:48Z</time>
      </trkpt>
      <trkpt lat="45.64994" lon="6.24099">
        <ele>1132.44</ele>
        <time>2015-05-24T13:56:02Z</time>
      </trkpt>
      <trkpt lat="45.64973" lon="6.24098">
        <ele>1119.12</ele>
        <time>2015-05-24T13:56:20Z</time>
      </trkpt>
      <trkpt lat="45.64954" lon="6.24092">
        <ele>1119.52</ele>
        <time>2015-05-24T13:56:25Z</time>
      </trkpt>
      <trkpt lat="45.64939" lon="6.24075">
        <ele>1085.2</ele>
        <time>2015-05-24T13:56:57Z</time>
      </trkpt>
      <trkpt lat="45.64922" lon="6.24068">
        <ele>1083.06</ele>
        <time>2015-05-24T13:57:16Z</time>
      </trkpt>
      <trkpt lat="45.64903" lon="6.24062">
        <ele>1080.1</ele>
        <time>2015-05-24T13:57:32Z</time>
      </trkpt>
      <trkpt lat="45.64886" lon="6.24054">
        <ele>1079.14</ele>
        <time>2015-05-24T13:57:49Z</time>
      </trkpt>
      <trkpt lat="45.6487" lon="6.24042">
        <ele>1071.89</ele>
        <time>2015-05-24T13:58:07Z</time>
      </trkpt>
      <trkpt lat="45.64852" lon="6.2404">
        <ele>1072.42</ele>
        <time>2015-05-24T13:58:26Z</time>
      </trkpt>
      <trkpt lat="45.64837" lon="6.24023">
        <ele>1064.44</ele>
        <time>2015-05-24T13:58:48Z</time>
      </trkpt>
      <trkpt lat="45.64818" lon="6.2402">
        <ele>1066.09</ele>
        <time>2015-05-24T13:59:03Z</time>
      </trkpt>
      <trkpt lat="45.64802" lon="6.2401">
        <ele>1063.85</ele>
        <time>2015-05-24T13:59:19Z</time>
      </trkpt>
      <trkpt lat="45.64785" lon="6.23998">
        <ele>1061.58</ele>
        <time>2015-05-24T13:59:36Z</time>
      </trkpt>
      <trkpt lat="45.64768" lon="6.23991">
        <ele>1036.86</ele>
        <time>2015-05-24T14:00:12Z</time>
      </trkpt>
      <trkpt lat="45.6476" lon="6.23967">
        <ele>1024.32</ele>
        <time>2015-05-24T14:00:30Z</time>
      </trkpt>
      <trkpt lat="45.64755" lon="6.23942">
        <ele>1031.21</ele>
        <time>2015-05-24T14:00:43Z</time>
      </trkpt>
      <trkpt lat="45.6474" lon="6.23925">
        <ele>1030.96</ele>
        <time>2015-05-24T14:01:01Z</time>
      </trkpt>
      <trkpt lat="45.64725" lon="6.2391">
        <ele>1026.94</ele>
        <time>2015-05-24T14:01:16Z</time>
      </trkpt>
      <trkpt lat="45.64712" lon="6.23891">
        <ele>1027.06</ele>
        <time>2015-05-24T14:01:32Z</time>
      </trkpt>
      <trkpt lat="45.64701" lon="6.23868">
        <ele>1018.79</ele>
        <time>2015-05-24T14:01:47Z</time>
      </trkpt>
      <trkpt lat="45.64691" lon="6.23846">
        <ele>1019.96</ele>
        <time>2015-05-24T14:02:02Z</time>
      </trkpt>
      <trkpt lat="45.64677" lon="6.23828">
        <ele>1025.23</ele>
        <time>2015-05-24T14:02:17Z</time>
      </trkpt>
      <trkpt lat="45.64659" lon="6.23819">
        <ele>1014.49</ele>
        <time>2015-05-24T14:02:36Z</time>
      </trkpt>
      <trkpt lat="45.64644" lon="6.23802">
        <ele>1002.41</ele>
        <time>2015-05-24T14:02:54Z</time>
      </trkpt>
      <trkpt lat="45.64628" lon="6.23787">
        <ele>1001.87</ele>
        <time>2015-05-24T14:03:11Z</time>
      </trkpt>
      <trkpt lat="45.64617" lon="6.23766">
        <ele>997.81</ele>
        <time>2015-05-24T14:03:28Z</time>
      </trkpt>
      <trkpt lat="45.64604" lon="6.23746">
        <ele>1000.38</ele>
        <time>2015-05-24T14:03:46Z</time>
      </trkpt>
      <trkpt lat="45.64589" lon="6.23732">
        <ele>1005.7</ele>
        <time>2015-05-24T14:03:59Z</time>
      </trkpt>
      <trkpt lat="45.64573" lon="6.23719">
        <ele>1011.57</ele>
        <time>2015-05-24T14:04:16Z</time>
      </trkpt>
      <trkpt lat="45.64566" lon="6.23695">
        <ele>1003.6</ele>
        <time>2015-05-24T14:04:29Z</time>
      </trkpt>
      <trkpt lat="45.64566" lon="6.23668">
        <ele>1000.17</ele>
        <time>2015-05-24T14:04:53Z</time>
      </trkpt>
    </trkseg>
  </trk>
</gpx>